MOUNT RAINIER
GEOLOGY & WEATHER
Hello guest! [ Log In ]
morageology.com Water Data for Nisqually River at Longmire

Nisqually River at Longmire

Date Range to view:
 
[ Graphical View | Weather History ]

View this data in a CSV Format

GMT Date/Time Local Date/Time Stage (ft) Rainfall (in) Turbidity (ntu) Air Temperature (°C) Dew Point Temperature (°C) Water Temperature (°C) Enclosure Temperature (°C) Turbidity Temperature (°C) 10-hour Fuel Temperature (°C) Relative Humidity (%) Water Conductivity (μS/cm) Air Level (ft) Water Level (psi) Battery (V)
2023-11-29 08:00:00 2023-11-29 00:00:00 -999.0000 5.19 -999.00 -0.9000 -2.4846 -999.0000 -0.8 -999 -1.4 89.0 -999.0000 30.7550 -999.0000 12.7
2023-11-29 08:15:00 2023-11-29 00:15:00 -999.0000 5.19 -999.00 -1.0000 -2.4324 -999.0000 -0.8 -999 -1.4 90.0 -999.0000 30.7590 -999.0000 12.6
2023-11-29 08:30:00 2023-11-29 00:30:00 -999.0000 5.19 -999.00 -1.0000 -2.4324 -999.0000 -0.8 -999 -1.5 90.0 -999.0000 30.7550 -999.0000 12.6
2023-11-29 08:45:00 2023-11-29 00:45:00 -999.0000 5.19 -999.00 -1.1000 -2.5312 -999.0000 -1.0 -999 -1.5 90.0 -999.0000 30.7550 -999.0000 12.6
2023-11-29 09:00:00 2023-11-29 01:00:00 -999.0000 5.19 -999.00 -1.1000 -2.6820 -999.0000 -0.8 -999 -1.5 89.0 -999.0000 30.7490 -999.0000 12.6
2023-11-29 09:15:00 2023-11-29 01:15:00 -999.0000 5.19 -999.00 -1.1000 -2.6820 -999.0000 -1.0 -999 -1.5 89.0 -999.0000 30.7520 -999.0000 12.6
2023-11-29 09:30:00 2023-11-29 01:30:00 -999.0000 5.19 -999.00 -1.1000 -2.6820 -999.0000 -0.8 -999 -1.5 89.0 -999.0000 30.7490 -999.0000 12.6
2023-11-29 09:45:00 2023-11-29 01:45:00 -999.0000 5.19 -999.00 -1.1000 -2.6820 -999.0000 -1.0 -999 -1.6 89.0 -999.0000 30.7450 -999.0000 12.6
2023-11-29 10:00:00 2023-11-29 02:00:00 -999.0000 5.19 -999.00 -1.2000 -2.6301 -999.0000 -1.0 -999 -1.6 90.0 -999.0000 30.7490 -999.0000 12.6
2023-11-29 10:15:00 2023-11-29 02:15:00 -999.0000 5.19 -999.00 -1.3000 -2.7289 -999.0000 -1.0 -999 -1.7 90.0 -999.0000 30.7490 -999.0000 12.6
2023-11-29 10:30:00 2023-11-29 02:30:00 -999.0000 5.19 -999.00 -1.3000 -2.7289 -999.0000 -1.0 -999 -1.8 90.0 -999.0000 30.7490 -999.0000 12.6
2023-11-29 10:45:00 2023-11-29 02:45:00 -999.0000 5.19 -999.00 -1.4000 -2.8277 -999.0000 -1.2 -999 -1.7 90.0 -999.0000 30.7450 -999.0000 12.6
2023-11-29 11:00:00 2023-11-29 03:00:00 -999.0000 5.19 -999.00 -1.4000 -2.8277 -999.0000 -1.2 -999 -1.7 90.0 -999.0000 30.7420 -999.0000 12.6
2023-11-29 11:15:00 2023-11-29 03:15:00 -999.0000 5.19 -999.00 -1.5000 -2.9265 -999.0000 -1.2 -999 -1.8 90.0 -999.0000 30.7450 -999.0000 12.6
2023-11-29 11:30:00 2023-11-29 03:30:00 -999.0000 5.19 -999.00 -1.5000 -2.9265 -999.0000 -1.4 -999 -1.9 90.0 -999.0000 30.7390 -999.0000 12.6
2023-11-29 11:45:00 2023-11-29 03:45:00 -999.0000 5.19 -999.00 -1.6000 -3.0253 -999.0000 -1.4 -999 -2.0 90.0 -999.0000 30.7320 -999.0000 12.6
2023-11-29 12:00:00 2023-11-29 04:00:00 -999.0000 5.19 -999.00 -1.5000 -2.9265 -999.0000 -1.4 -999 -2.0 90.0 -999.0000 30.7320 -999.0000 12.6
2023-11-29 12:15:00 2023-11-29 04:15:00 -999.0000 5.19 -999.00 -1.6000 -3.1755 -999.0000 -1.4 -999 -2.0 89.0 -999.0000 30.7290 -999.0000 12.6
2023-11-29 12:30:00 2023-11-29 04:30:00 -999.0000 5.19 -999.00 -1.6000 -3.1755 -999.0000 -1.4 -999 -2.0 89.0 -999.0000 30.7290 -999.0000 12.6
2023-11-29 12:45:00 2023-11-29 04:45:00 -999.0000 5.19 -999.00 -1.6000 -3.0253 -999.0000 -1.5 -999 -2.1 90.0 -999.0000 30.7220 -999.0000 12.6
2023-11-29 13:00:00 2023-11-29 05:00:00 -999.0000 5.19 -999.00 -1.7000 -3.1242 -999.0000 -1.5 -999 -2.1 90.0 -999.0000 30.7190 -999.0000 12.6
2023-11-29 13:15:00 2023-11-29 05:15:00 -999.0000 5.19 -999.00 -1.6000 -3.0253 -999.0000 -1.5 -999 -2.2 90.0 -999.0000 30.7220 -999.0000 12.6
2023-11-29 13:30:00 2023-11-29 05:30:00 -999.0000 5.19 -999.00 -1.8000 -3.2230 -999.0000 -1.5 -999 -2.2 90.0 -999.0000 30.7190 -999.0000 12.6
2023-11-29 13:45:00 2023-11-29 05:45:00 -999.0000 5.19 -999.00 -1.8000 -3.2230 -999.0000 -1.5 -999 -2.2 90.0 -999.0000 30.7120 -999.0000 12.6
2023-11-29 14:00:00 2023-11-29 06:00:00 -999.0000 5.19 -999.00 -1.8000 -3.0745 -999.0000 -1.5 -999 -2.2 91.0 -999.0000 30.7150 -999.0000 12.6
2023-11-29 14:15:00 2023-11-29 06:15:00 -999.0000 5.19 -999.00 -1.8000 -3.0745 -999.0000 -1.5 -999 -2.1 91.0 -999.0000 30.7220 -999.0000 12.5
2023-11-29 14:30:00 2023-11-29 06:30:00 -999.0000 5.19 -999.00 -1.6000 -2.7294 -999.0000 -1.5 -999 -2.0 92.0 -999.0000 30.7220 -999.0000 12.6
2023-11-29 14:45:00 2023-11-29 06:45:00 -999.0000 5.19 -999.00 -1.4000 -2.6788 -999.0000 -1.5 -999 -1.8 91.0 -999.0000 30.7320 -999.0000 12.6
2023-11-29 15:00:00 2023-11-29 07:00:00 -999.0000 5.19 -999.00 -1.2000 -2.6301 -999.0000 -1.5 -999 -1.6 90.0 -999.0000 30.7320 -999.0000 12.6
2023-11-29 15:15:00 2023-11-29 07:15:00 -999.0000 5.19 -999.00 -1.1000 -2.3819 -999.0000 -1.4 -999 -1.5 91.0 -999.0000 30.7250 -999.0000 12.5
2023-11-29 15:30:00 2023-11-29 07:30:00 -999.0000 5.19 -999.00 -1.0000 -2.2830 -999.0000 -1.2 -999 -1.4 91.0 -999.0000 30.7250 -999.0000 12.6
2023-11-29 15:45:00 2023-11-29 07:45:00 -999.0000 5.19 -999.00 -0.9000 -2.3336 -999.0000 -1.2 -999 -1.3 90.0 -999.0000 30.7150 -999.0000 12.6
2023-11-29 16:00:00 2023-11-29 08:00:00 -999.0000 5.19 -999.00 -0.7000 -2.1360 -999.0000 -0.8 -999 -1.1 90.0 -999.0000 30.7190 -999.0000 12.6
2023-11-29 16:15:00 2023-11-29 08:15:00 -999.0000 5.19 -999.00 -0.6000 -1.8872 -999.0000 -0.7 -999 -0.9 91.0 -999.0000 30.7190 -999.0000 12.6
2023-11-29 16:30:00 2023-11-29 08:30:00 -999.0000 5.19 -999.00 -0.3000 -1.5904 -999.0000 -0.5 -999 -0.7 91.0 -999.0000 30.7190 -999.0000 12.6
2023-11-29 16:45:00 2023-11-29 08:45:00 -999.0000 5.19 -999.00 -0.1000 -1.3925 -999.0000 -0.3 -999 -0.5 91.0 -999.0000 30.7250 -999.0000 12.6
2023-11-29 17:00:00 2023-11-29 09:00:00 -999.0000 5.19 -999.00 0.0000 -1.4442 -999.0000 -0.1 -999 -0.3 90.0 -999.0000 30.7290 -999.0000 12.6
2023-11-29 17:15:00 2023-11-29 09:15:00 -999.0000 5.19 -999.00 0.3000 -1.1478 -999.0000 0.2 -999 0.0 90.0 -999.0000 30.7220 -999.0000 12.6
2023-11-29 17:30:00 2023-11-29 09:30:00 -999.0000 5.19 -999.00 0.5000 -0.7989 -999.0000 0.6 -999 0.2 91.0 -999.0000 30.7290 -999.0000 12.6
2023-11-29 17:45:00 2023-11-29 09:45:00 -999.0000 5.19 -999.00 0.7000 -0.6010 -999.0000 0.7 -999 0.4 91.0 -999.0000 30.7290 -999.0000 12.6
2023-11-29 18:00:00 2023-11-29 10:00:00 -999.0000 5.19 -999.00 0.9000 -0.4031 -999.0000 0.9 -999 0.5 91.0 -999.0000 30.7250 -999.0000 12.6
2023-11-29 18:15:00 2023-11-29 10:15:00 -999.0000 5.19 -999.00 1.0000 -0.1538 -999.0000 1.3 -999 0.7 92.0 -999.0000 30.7290 -999.0000 12.6
2023-11-29 18:30:00 2023-11-29 10:30:00 -999.0000 5.19 -999.00 1.1000 0.0944 -999.0000 1.4 -999 0.9 93.0 -999.0000 30.7320 -999.0000 12.6
2023-11-29 18:45:00 2023-11-29 10:45:00 -999.0000 5.19 -999.00 1.2000 0.3414 -999.0000 1.8 -999 1.0 94.0 -999.0000 30.7320 -999.0000 12.7
2023-11-29 19:00:00 2023-11-29 11:00:00 -999.0000 5.19 -999.00 1.5000 0.6392 -999.0000 2.0 -999 1.2 94.0 -999.0000 30.7320 -999.0000 12.7
2023-11-29 19:15:00 2023-11-29 11:15:00 -999.0000 5.19 -999.00 1.5000 0.6392 -999.0000 2.3 -999 1.3 94.0 -999.0000 30.7250 -999.0000 12.7
2023-11-29 19:30:00 2023-11-29 11:30:00 -999.0000 5.19 -999.00 1.5000 0.6392 -999.0000 2.5 -999 1.4 94.0 -999.0000 30.7220 -999.0000 12.7
2023-11-29 19:45:00 2023-11-29 11:45:00 -999.0000 5.19 -999.00 1.6000 0.7385 -999.0000 2.7 -999 1.5 94.0 -999.0000 30.7150 -999.0000 12.7
2023-11-29 20:00:00 2023-11-29 12:00:00 -999.0000 5.19 -999.00 1.8000 0.6386 -999.0000 2.8 -999 1.7 92.0 -999.0000 30.7120 -999.0000 12.8
2023-11-29 20:15:00 2023-11-29 12:15:00 -999.0000 5.19 -999.00 1.9000 0.7377 -999.0000 3.2 -999 1.8 92.0 -999.0000 30.7090 -999.0000 12.8
2023-11-29 20:30:00 2023-11-29 12:30:00 -999.0000 5.19 -999.00 2.0000 0.2211 -999.0000 3.2 -999 1.9 88.0 -999.0000 30.7050 -999.0000 12.8
2023-11-29 20:45:00 2023-11-29 12:45:00 -999.0000 5.19 -999.00 2.5000 -0.2617 -999.0000 3.4 -999 2.1 82.0 -999.0000 30.7050 -999.0000 12.8
2023-11-29 21:00:00 2023-11-29 13:00:00 -999.0000 5.19 -999.00 2.8000 -1.9391 -999.0000 3.7 -999 2.3 71.0 -999.0000 30.7050 -999.0000 12.8
2023-11-29 21:15:00 2023-11-29 13:15:00 -999.0000 5.19 -999.00 2.8000 -3.1313 -999.0000 3.7 -999 2.3 65.0 -999.0000 30.6990 -999.0000 12.8
2023-11-29 21:30:00 2023-11-29 13:30:00 -999.0000 5.19 -999.00 2.6000 -0.1639 -999.0000 3.9 -999 2.4 82.0 -999.0000 30.6950 -999.0000 12.8
2023-11-29 21:45:00 2023-11-29 13:45:00 -999.0000 5.19 -999.00 2.4000 -1.2214 -999.0000 3.9 -999 2.3 77.0 -999.0000 30.6950 -999.0000 12.8
2023-11-29 22:00:00 2023-11-29 14:00:00 -999.0000 5.19 -999.00 2.4000 -0.0277 -999.0000 3.9 -999 2.2 84.0 -999.0000 30.6920 -999.0000 12.8
2023-11-29 22:15:00 2023-11-29 14:15:00 -999.0000 5.19 -999.00 2.2000 0.4182 -999.0000 3.9 -999 2.1 88.0 -999.0000 30.6850 -999.0000 12.8
2023-11-29 22:30:00 2023-11-29 14:30:00 -999.0000 5.19 -999.00 2.1000 -0.8209 -999.0000 3.9 -999 1.9 81.0 -999.0000 30.6850 -999.0000 12.8
2023-11-29 22:45:00 2023-11-29 14:45:00 -999.0000 5.19 -999.00 2.1000 0.0022 -999.0000 3.9 -999 1.8 86.0 -999.0000 30.6820 -999.0000 12.7
2023-11-29 23:00:00 2023-11-29 15:00:00 -999.0000 5.19 -999.00 1.8000 0.1800 -999.0000 3.7 -999 1.7 89.0 -999.0000 30.6820 -999.0000 12.7
2023-11-29 23:15:00 2023-11-29 15:15:00 -999.0000 5.19 -999.00 1.6000 0.1367 -999.0000 3.6 -999 1.4 90.0 -999.0000 30.6780 -999.0000 12.7
2023-11-29 23:30:00 2023-11-29 15:30:00 -999.0000 5.19 -999.00 1.4000 0.2424 -999.0000 3.2 -999 1.3 92.0 -999.0000 30.6780 -999.0000 12.6
2023-11-29 23:45:00 2023-11-29 15:45:00 -999.0000 5.19 -999.00 1.4000 0.0915 -999.0000 3.0 -999 1.1 91.0 -999.0000 30.6820 -999.0000 12.6
2023-11-30 00:00:00 2023-11-29 16:00:00 -999.0000 5.19 -999.00 1.3000 -0.1597 -999.0000 2.8 -999 1.0 90.0 -999.0000 30.6720 -999.0000 12.6
2023-11-30 00:15:00 2023-11-29 16:15:00 -999.0000 5.19 -999.00 1.1000 -0.5108 -999.0000 2.7 -999 0.9 89.0 -999.0000 30.6720 -999.0000 12.6
2023-11-30 00:30:00 2023-11-29 16:30:00 -999.0000 5.19 -999.00 1.1000 -0.5108 -999.0000 2.5 -999 0.7 89.0 -999.0000 30.6720 -999.0000 12.6
2023-11-30 00:45:00 2023-11-29 16:45:00 -999.0000 5.19 -999.00 0.9000 -0.4031 -999.0000 2.3 -999 0.6 91.0 -999.0000 30.6680 -999.0000 12.6
2023-11-30 01:00:00 2023-11-29 17:00:00 -999.0000 5.19 -999.00 0.8000 -0.8069 -999.0000 2.0 -999 0.5 89.0 -999.0000 30.6750 -999.0000 12.6
2023-11-30 01:15:00 2023-11-29 17:15:00 -999.0000 5.19 -999.00 0.7000 -0.9056 -999.0000 1.8 -999 0.4 89.0 -999.0000 30.6750 -999.0000 12.6
2023-11-30 01:30:00 2023-11-29 17:30:00 -999.0000 5.19 -999.00 0.7000 -0.7525 -999.0000 1.8 -999 0.4 90.0 -999.0000 30.6780 -999.0000 12.6
2023-11-30 01:45:00 2023-11-29 17:45:00 -999.0000 5.19 -999.00 0.6000 -0.8514 -999.0000 1.6 -999 0.3 90.0 -999.0000 30.6780 -999.0000 12.6
2023-11-30 02:00:00 2023-11-29 18:00:00 -999.0000 5.19 -999.00 0.6000 -0.8514 -999.0000 1.4 -999 0.2 90.0 -999.0000 30.6750 -999.0000 12.6
2023-11-30 02:15:00 2023-11-29 18:15:00 -999.0000 5.19 -999.00 0.5000 -0.7989 -999.0000 1.4 -999 0.2 91.0 -999.0000 30.6650 -999.0000 12.6
2023-11-30 02:30:00 2023-11-29 18:30:00 -999.0000 5.19 -999.00 0.5000 -1.2572 -999.0000 1.3 -999 0.1 88.0 -999.0000 30.6620 -999.0000 12.6
2023-11-30 02:45:00 2023-11-29 18:45:00 -999.0000 5.19 -999.00 0.5000 -0.9502 -999.0000 1.3 -999 0.0 90.0 -999.0000 30.6580 -999.0000 12.6
2023-11-30 03:00:00 2023-11-29 19:00:00 -999.0000 5.19 -999.00 0.4000 -1.0490 -999.0000 1.1 -999 0.0 90.0 -999.0000 30.6580 -999.0000 12.6
2023-11-30 03:15:00 2023-11-29 19:15:00 -999.0000 5.19 -999.00 0.4000 -0.8978 -999.0000 1.1 -999 0.0 91.0 -999.0000 30.6550 -999.0000 12.5
2023-11-30 03:30:00 2023-11-29 19:30:00 -999.0000 5.19 -999.00 0.4000 -0.7481 -999.0000 1.1 -999 0.0 92.0 -999.0000 30.6520 -999.0000 12.6
2023-11-30 03:45:00 2023-11-29 19:45:00 -999.0000 5.19 -999.00 0.3000 -0.9968 -999.0000 0.9 -999 -0.1 91.0 -999.0000 30.6520 -999.0000 12.5
2023-11-30 04:00:00 2023-11-29 20:00:00 -999.0000 5.19 -999.00 0.3000 -0.8472 -999.0000 0.9 -999 -0.1 92.0 -999.0000 30.6520 -999.0000 12.6
2023-11-30 04:15:00 2023-11-29 20:15:00 -999.0000 5.19 -999.00 0.2000 -0.9463 -999.0000 0.9 -999 -0.1 92.0 -999.0000 30.6450 -999.0000 12.5
2023-11-30 04:30:00 2023-11-29 20:30:00 -999.0000 5.19 -999.00 0.3000 -0.8472 -999.0000 0.7 -999 0.0 92.0 -999.0000 30.6480 -999.0000 12.5
2023-11-30 04:45:00 2023-11-29 20:45:00 -999.0000 5.19 -999.00 0.2000 -0.7982 -999.0000 0.7 -999 -0.1 93.0 -999.0000 30.6450 -999.0000 12.5
2023-11-30 05:00:00 2023-11-29 21:00:00 -999.0000 5.19 -999.00 0.2000 -0.9463 -999.0000 0.7 -999 -0.1 92.0 -999.0000 30.6480 -999.0000 12.6
2023-11-30 05:15:00 2023-11-29 21:15:00 -999.0000 5.19 -999.00 0.2000 -0.9463 -999.0000 0.7 -999 -0.1 92.0 -999.0000 30.6420 -999.0000 12.6
2023-11-30 05:30:00 2023-11-29 21:30:00 -999.0000 5.19 -999.00 0.3000 -0.6991 -999.0000 0.7 -999 -0.1 93.0 -999.0000 30.6480 -999.0000 12.5
2023-11-30 05:45:00 2023-11-29 21:45:00 -999.0000 5.19 -999.00 0.3000 -0.6991 -999.0000 0.6 -999 -0.1 93.0 -999.0000 30.6480 -999.0000 12.5
2023-11-30 06:00:00 2023-11-29 22:00:00 -999.0000 5.19 -999.00 0.2000 -0.9463 -999.0000 0.6 -999 -0.1 92.0 -999.0000 30.6420 -999.0000 12.6
2023-11-30 06:15:00 2023-11-29 22:15:00 -999.0000 5.19 -999.00 0.3000 -0.6991 -999.0000 0.7 -999 0.0 93.0 -999.0000 30.6380 -999.0000 12.5
2023-11-30 06:30:00 2023-11-29 22:30:00 -999.0000 5.19 -999.00 0.3000 -0.8472 -999.0000 0.7 -999 0.0 92.0 -999.0000 30.6380 -999.0000 12.5
2023-11-30 06:45:00 2023-11-29 22:45:00 -999.0000 5.19 -999.00 0.3000 -0.8472 -999.0000 0.7 -999 -0.1 92.0 -999.0000 30.6380 -999.0000 12.6
2023-11-30 07:00:00 2023-11-29 23:00:00 -999.0000 5.19 -999.00 0.3000 -0.6991 -999.0000 0.7 -999 -0.1 93.0 -999.0000 30.6380 -999.0000 12.6
2023-11-30 07:15:00 2023-11-29 23:15:00 -999.0000 5.19 -999.00 0.2000 -0.7982 -999.0000 0.7 -999 -0.1 93.0 -999.0000 30.6320 -999.0000 12.5
2023-11-30 07:30:00 2023-11-29 23:30:00 -999.0000 5.19 -999.00 0.2000 -0.7982 -999.0000 0.7 -999 -0.1 93.0 -999.0000 30.6250 -999.0000 12.5
2023-11-30 07:45:00 2023-11-29 23:45:00 -999.0000 5.19 -999.00 0.1000 -0.8974 -999.0000 0.7 -999 -0.2 93.0 -999.0000 30.6180 -999.0000 12.5
2023-11-30 08:00:00 2023-11-30 00:00:00 -999.0000 5.19 -999.00 0.1000 -0.8974 -999.0000 0.6 -999 -0.3 93.0 -999.0000 30.6220 -999.0000 12.5
2023-11-30 08:15:00 2023-11-30 00:15:00 -999.0000 5.19 -999.00 0.1000 -0.7509 -999.0000 0.7 -999 -0.2 94.0 -999.0000 30.6120 -999.0000 12.5
2023-11-30 08:30:00 2023-11-30 00:30:00 -999.0000 5.19 -999.00 0.1000 -0.7509 -999.0000 0.6 -999 -0.2 94.0 -999.0000 30.6120 -999.0000 12.5
2023-11-30 08:45:00 2023-11-30 00:45:00 -999.0000 5.19 -999.00 0.2000 -0.6516 -999.0000 0.6 -999 -0.2 94.0 -999.0000 30.6080 -999.0000 12.5
2023-11-30 09:00:00 2023-11-30 01:00:00 -999.0000 5.19 -999.00 0.2000 -0.6516 -999.0000 0.6 -999 -0.2 94.0 -999.0000 30.6050 -999.0000 12.5
2023-11-30 09:15:00 2023-11-30 01:15:00 -999.0000 5.19 -999.00 0.1000 -0.8974 -999.0000 0.4 -999 -0.2 93.0 -999.0000 30.6020 -999.0000 12.5
2023-11-30 09:30:00 2023-11-30 01:30:00 -999.0000 5.19 -999.00 0.0000 -0.8502 -999.0000 0.6 -999 -0.3 94.0 -999.0000 30.6020 -999.0000 12.5
2023-11-30 09:45:00 2023-11-30 01:45:00 -999.0000 5.19 -999.00 0.0000 -0.8502 -999.0000 0.4 -999 -0.3 94.0 -999.0000 30.5950 -999.0000 12.5
2023-11-30 10:00:00 2023-11-30 02:00:00 -999.0000 5.19 -999.00 0.1000 -0.7509 -999.0000 0.4 -999 -0.3 94.0 -999.0000 30.5910 -999.0000 12.5
2023-11-30 10:15:00 2023-11-30 02:15:00 -999.0000 5.19 -999.00 0.1000 -0.7509 -999.0000 0.6 -999 -0.3 94.0 -999.0000 30.5910 -999.0000 12.5
2023-11-30 10:30:00 2023-11-30 02:30:00 -999.0000 5.19 -999.00 0.1000 -0.7509 -999.0000 0.6 -999 -0.2 94.0 -999.0000 30.5880 -999.0000 12.6
2023-11-30 10:45:00 2023-11-30 02:45:00 -999.0000 5.19 -999.00 0.1000 -0.7509 -999.0000 0.6 -999 -0.3 94.0 -999.0000 30.5810 -999.0000 12.5
2023-11-30 11:00:00 2023-11-30 03:00:00 -999.0000 5.19 -999.00 0.1000 -0.7509 -999.0000 0.4 -999 -0.2 94.0 -999.0000 30.5780 -999.0000 12.6
2023-11-30 11:15:00 2023-11-30 03:15:00 -999.0000 5.19 -999.00 0.1000 -0.7509 -999.0000 0.4 -999 -0.2 94.0 -999.0000 30.5750 -999.0000 12.5
2023-11-30 11:30:00 2023-11-30 03:30:00 -999.0000 5.19 -999.00 0.1000 -0.7509 -999.0000 0.6 -999 -0.2 94.0 -999.0000 30.5710 -999.0000 12.5
2023-11-30 11:45:00 2023-11-30 03:45:00 -999.0000 5.19 -999.00 0.1000 -0.7509 -999.0000 0.6 -999 -0.3 94.0 -999.0000 30.5750 -999.0000 12.6
2023-11-30 12:00:00 2023-11-30 04:00:00 -999.0000 5.19 -999.00 0.1000 -0.7509 -999.0000 0.4 -999 -0.2 94.0 -999.0000 30.5680 -999.0000 12.5
2023-11-30 12:15:00 2023-11-30 04:15:00 -999.0000 5.19 -999.00 0.2000 -0.5064 -999.0000 0.4 -999 -0.2 95.0 -999.0000 30.5610 -999.0000 12.5
2023-11-30 12:30:00 2023-11-30 04:30:00 -999.0000 5.19 -999.00 0.2000 -0.5064 -999.0000 0.6 -999 -0.2 95.0 -999.0000 30.5580 -999.0000 12.5
2023-11-30 12:45:00 2023-11-30 04:45:00 -999.0000 5.19 -999.00 0.3000 -0.4070 -999.0000 0.6 -999 -0.1 95.0 -999.0000 30.5580 -999.0000 12.5
2023-11-30 13:00:00 2023-11-30 05:00:00 -999.0000 5.19 -999.00 0.3000 -0.4070 -999.0000 0.6 -999 0.0 95.0 -999.0000 30.5580 -999.0000 12.5
2023-11-30 13:15:00 2023-11-30 05:15:00 -999.0000 5.19 -999.00 0.4000 -0.3076 -999.0000 0.6 -999 0.1 95.0 -999.0000 30.5550 -999.0000 12.5
2023-11-30 13:30:00 2023-11-30 05:30:00 -999.0000 5.19 -999.00 0.4000 -0.3076 -999.0000 0.6 -999 0.1 95.0 -999.0000 30.5510 -999.0000 12.5
2023-11-30 13:45:00 2023-11-30 05:45:00 -999.0000 5.19 -999.00 0.5000 -0.2082 -999.0000 0.7 -999 0.2 95.0 -999.0000 30.5480 -999.0000 12.5
2023-11-30 14:00:00 2023-11-30 06:00:00 -999.0000 5.19 -999.00 0.5000 -0.2082 -999.0000 0.7 -999 0.2 95.0 -999.0000 30.5480 -999.0000 12.5
2023-11-30 14:15:00 2023-11-30 06:15:00 -999.0000 5.19 -999.00 0.6000 0.0356 -999.0000 0.9 -999 0.2 96.0 -999.0000 30.5410 -999.0000 12.5
2023-11-30 14:30:00 2023-11-30 06:30:00 -999.0000 5.19 -999.00 0.6000 0.0356 -999.0000 0.9 -999 0.2 96.0 -999.0000 30.5450 -999.0000 12.5
2023-11-30 14:45:00 2023-11-30 06:45:00 -999.0000 5.19 -999.00 0.5000 -0.0639 -999.0000 0.7 -999 0.1 96.0 -999.0000 30.5410 -999.0000 12.5
2023-11-30 15:00:00 2023-11-30 07:00:00 -999.0000 5.19 -999.00 0.5000 -0.0639 -999.0000 0.7 -999 0.1 96.0 -999.0000 30.5380 -999.0000 12.5
2023-11-30 15:15:00 2023-11-30 07:15:00 -999.0000 5.19 -999.00 0.5000 0.0790 -999.0000 0.9 -999 0.1 97.0 -999.0000 30.5380 -999.0000 12.5
2023-11-30 15:30:00 2023-11-30 07:30:00 -999.0000 5.19 -999.00 0.4000 -0.0207 -999.0000 0.9 -999 0.0 97.0 -999.0000 30.5350 -999.0000 12.5
2023-11-30 15:45:00 2023-11-30 07:45:00 -999.0000 5.19 -999.00 0.4000 0.1208 -999.0000 0.9 -999 0.1 98.0 -999.0000 30.5310 -999.0000 12.5
2023-11-30 16:00:00 2023-11-30 08:00:00 -999.0000 5.19 -999.00 0.5000 0.2206 -999.0000 0.9 -999 0.1 98.0 -999.0000 30.5250 -999.0000 12.5
2023-11-30 16:15:00 2023-11-30 08:15:00 -999.0000 5.19 -999.00 0.5000 0.2206 -999.0000 0.9 -999 0.1 98.0 -999.0000 30.5150 -999.0000 12.5
2023-11-30 16:30:00 2023-11-30 08:30:00 -999.0000 5.19 -999.00 0.4000 0.1208 -999.0000 0.9 -999 0.1 98.0 -999.0000 30.5180 -999.0000 12.5
2023-11-30 16:45:00 2023-11-30 08:45:00 -999.0000 5.19 -999.00 0.5000 0.2206 -999.0000 0.9 -999 0.1 98.0 -999.0000 30.5110 -999.0000 12.6
2023-11-30 17:00:00 2023-11-30 09:00:00 -999.0000 5.19 -999.00 0.6000 0.3204 -999.0000 0.9 -999 0.2 98.0 -999.0000 30.5050 -999.0000 12.6
2023-11-30 17:15:00 2023-11-30 09:15:00 -999.0000 5.19 -999.00 0.8000 0.5199 -999.0000 0.9 -999 0.3 98.0 -999.0000 30.5010 -999.0000 12.6
2023-11-30 17:30:00 2023-11-30 09:30:00 -999.0000 5.19 -999.00 1.0000 0.5773 -999.0000 1.3 -999 0.5 97.0 -999.0000 30.5080 -999.0000 12.6
2023-11-30 17:45:00 2023-11-30 09:45:00 -999.0000 5.19 -999.00 1.0000 0.5773 -999.0000 1.4 -999 0.7 97.0 -999.0000 30.4980 -999.0000 12.7
2023-11-30 18:00:00 2023-11-30 10:00:00 -999.0000 5.19 -999.00 1.1000 0.8192 -999.0000 1.6 -999 0.9 98.0 -999.0000 30.4940 -999.0000 12.7
2023-11-30 18:15:00 2023-11-30 10:15:00 -999.0000 5.19 -999.00 1.3000 0.8762 -999.0000 2.1 -999 1.2 97.0 -999.0000 30.4940 -999.0000 12.8
2023-11-30 18:30:00 2023-11-30 10:30:00 -999.0000 5.19 -999.00 1.4000 0.9759 -999.0000 2.5 -999 1.3 97.0 -999.0000 30.4880 -999.0000 12.8
2023-11-30 18:45:00 2023-11-30 10:45:00 -999.0000 5.19 -999.00 1.4000 0.9759 -999.0000 2.7 -999 1.3 97.0 -999.0000 30.4810 -999.0000 12.8
2023-11-30 19:00:00 2023-11-30 11:00:00 -999.0000 5.19 -999.00 1.5000 1.0755 -999.0000 2.8 -999 1.4 97.0 -999.0000 30.4780 -999.0000 12.8
2023-11-30 19:15:00 2023-11-30 11:15:00 -999.0000 5.19 -999.00 1.7000 1.4178 -999.0000 3.0 -999 1.7 98.0 -999.0000 30.4710 -999.0000 12.9
2023-11-30 19:30:00 2023-11-30 11:30:00 -999.0000 5.19 -999.00 1.8000 1.3745 -999.0000 3.4 -999 1.9 97.0 -999.0000 30.4680 -999.0000 13.0
2023-11-30 19:45:00 2023-11-30 11:45:00 -999.0000 5.19 -999.00 1.9000 1.6174 -999.0000 3.6 -999 1.9 98.0 -999.0000 30.4610 -999.0000 13.0
2023-11-30 20:00:00 2023-11-30 12:00:00 -999.0000 5.19 -999.00 2.1000 1.8169 -999.0000 3.7 -999 2.1 98.0 -999.0000 30.4540 -999.0000 13.0
2023-11-30 20:15:00 2023-11-30 12:15:00 -999.0000 5.19 -999.00 2.2000 1.9167 -999.0000 3.9 -999 2.1 98.0 -999.0000 30.4480 -999.0000 12.9
2023-11-30 20:30:00 2023-11-30 12:30:00 -999.0000 5.19 -999.00 2.2000 1.9167 -999.0000 3.9 -999 2.1 98.0 -999.0000 30.4440 -999.0000 12.9
2023-11-30 20:45:00 2023-11-30 12:45:00 -999.0000 5.19 -999.00 2.2000 1.9167 -999.0000 3.9 -999 2.0 98.0 -999.0000 30.4440 -999.0000 12.9
2023-11-30 21:00:00 2023-11-30 13:00:00 -999.0000 5.19 -999.00 2.3000 2.0164 -999.0000 3.9 -999 2.1 98.0 -999.0000 30.4340 -999.0000 12.9
2023-11-30 21:15:00 2023-11-30 13:15:00 -999.0000 5.19 -999.00 2.3000 2.0164 -999.0000 3.9 -999 2.1 98.0 -999.0000 30.4310 -999.0000 12.8
2023-11-30 21:30:00 2023-11-30 13:30:00 -999.0000 5.19 -999.00 2.3000 2.0164 -999.0000 3.7 -999 2.0 98.0 -999.0000 30.4240 -999.0000 12.8
2023-11-30 21:45:00 2023-11-30 13:45:00 -999.0000 5.19 -999.00 2.0000 1.7171 -999.0000 3.7 -999 1.9 98.0 -999.0000 30.4240 -999.0000 12.7
2023-11-30 22:00:00 2023-11-30 14:00:00 -999.0000 5.19 -999.00 2.0000 1.7171 -999.0000 3.6 -999 1.7 98.0 -999.0000 30.4240 -999.0000 12.7
2023-11-30 22:15:00 2023-11-30 14:15:00 -999.0000 5.19 -999.00 1.9000 1.6174 -999.0000 3.4 -999 1.7 98.0 -999.0000 30.4240 -999.0000 12.7
2023-11-30 22:30:00 2023-11-30 14:30:00 -999.0000 5.19 -999.00 1.8000 1.5176 -999.0000 3.2 -999 1.6 98.0 -999.0000 30.4180 -999.0000 12.6
2023-11-30 22:45:00 2023-11-30 14:45:00 -999.0000 5.19 -999.00 1.7000 1.4178 -999.0000 3.0 -999 1.5 98.0 -999.0000 30.4140 -999.0000 12.6
2023-11-30 23:00:00 2023-11-30 15:00:00 -999.0000 5.19 -999.00 1.8000 1.5176 -999.0000 3.0 -999 1.5 98.0 -999.0000 30.4140 -999.0000 12.6
2023-11-30 23:15:00 2023-11-30 15:15:00 -999.0000 5.19 -999.00 1.8000 1.5176 -999.0000 2.8 -999 1.5 98.0 -999.0000 30.4070 -999.0000 12.6
2023-11-30 23:30:00 2023-11-30 15:30:00 -999.0000 5.19 -999.00 1.8000 1.5176 -999.0000 2.8 -999 1.5 98.0 -999.0000 30.4070 -999.0000 12.6
2023-11-30 23:45:00 2023-11-30 15:45:00 -999.0000 5.19 -999.00 1.7000 1.4178 -999.0000 2.7 -999 1.4 98.0 -999.0000 30.4140 -999.0000 12.6
2023-12-01 00:00:00 2023-11-30 16:00:00 -999.0000 5.19 -999.00 1.7000 1.4178 -999.0000 2.7 -999 1.4 98.0 -999.0000 30.4180 -999.0000 12.5
2023-12-01 00:15:00 2023-11-30 16:15:00 -999.0000 5.19 -999.00 1.5000 1.2183 -999.0000 2.5 -999 1.2 98.0 -999.0000 30.4140 -999.0000 12.5
2023-12-01 00:30:00 2023-11-30 16:30:00 -999.0000 5.19 -999.00 1.4000 1.1185 -999.0000 2.5 -999 1.0 98.0 -999.0000 30.4140 -999.0000 12.5
2023-12-01 00:45:00 2023-11-30 16:45:00 -999.0000 5.19 -999.00 1.2000 0.9190 -999.0000 2.3 -999 0.8 98.0 -999.0000 30.4240 -999.0000 12.5
2023-12-01 01:00:00 2023-11-30 17:00:00 -999.0000 5.19 -999.00 1.0000 0.7194 -999.0000 2.1 -999 0.6 98.0 -999.0000 30.4310 -999.0000 12.5
2023-12-01 01:15:00 2023-11-30 17:15:00 -999.0000 5.19 -999.00 0.9000 0.6197 -999.0000 2.1 -999 0.5 98.0 -999.0000 30.4340 -999.0000 12.5
2023-12-01 01:30:00 2023-11-30 17:30:00 -999.0000 5.19 -999.00 0.7000 0.4201 -999.0000 2.0 -999 0.4 98.0 -999.0000 30.4410 -999.0000 12.5
2023-12-01 01:45:00 2023-11-30 17:45:00 -999.0000 5.19 -999.00 0.7000 0.4201 -999.0000 1.8 -999 0.3 98.0 -999.0000 30.4380 -999.0000 12.5
2023-12-01 02:00:00 2023-11-30 18:00:00 -999.0000 5.19 -999.00 0.7000 0.4201 -999.0000 1.6 -999 0.3 98.0 -999.0000 30.4380 -999.0000 12.5
2023-12-01 02:15:00 2023-11-30 18:15:00 -999.0000 5.19 -999.00 0.7000 0.4201 -999.0000 1.6 -999 0.3 98.0 -999.0000 30.4380 -999.0000 12.5
2023-12-01 02:30:00 2023-11-30 18:30:00 -999.0000 5.19 -999.00 0.7000 0.4201 -999.0000 1.4 -999 0.3 98.0 -999.0000 30.4410 -999.0000 12.5
2023-12-01 02:45:00 2023-11-30 18:45:00 -999.0000 5.19 -999.00 0.8000 0.5199 -999.0000 1.4 -999 0.3 98.0 -999.0000 30.4440 -999.0000 12.5
2023-12-01 03:00:00 2023-11-30 19:00:00 -999.0000 5.19 -999.00 0.7000 0.4201 -999.0000 1.3 -999 0.3 98.0 -999.0000 30.4480 -999.0000 12.5
2023-12-01 03:15:00 2023-11-30 19:15:00 -999.0000 5.19 -999.00 0.6000 0.3204 -999.0000 1.3 -999 0.3 98.0 -999.0000 30.4540 -999.0000 12.5
2023-12-01 03:30:00 2023-11-30 19:30:00 -999.0000 5.19 -999.00 0.6000 0.3204 -999.0000 1.3 -999 0.3 98.0 -999.0000 30.4540 -999.0000 12.5
2023-12-01 03:45:00 2023-11-30 19:45:00 -999.0000 5.19 -999.00 0.6000 0.3204 -999.0000 1.3 -999 0.2 98.0 -999.0000 30.4610 -999.0000 12.5
2023-12-01 04:00:00 2023-11-30 20:00:00 -999.0000 5.19 -999.00 0.6000 0.3204 -999.0000 1.3 -999 0.3 98.0 -999.0000 30.4610 -999.0000 12.5
2023-12-01 04:15:00 2023-11-30 20:15:00 -999.0000 5.19 -999.00 0.5000 0.3609 -999.0000 1.3 -999 0.2 99.0 -999.0000 30.4680 -999.0000 12.5
2023-12-01 04:30:00 2023-11-30 20:30:00 -999.0000 5.19 -999.00 0.4000 0.2610 -999.0000 1.1 -999 0.1 99.0 -999.0000 30.4680 -999.0000 12.5
2023-12-01 04:45:00 2023-11-30 20:45:00 -999.0000 5.19 -999.00 0.4000 0.2610 -999.0000 1.1 -999 0.1 99.0 -999.0000 30.4680 -999.0000 12.5
2023-12-01 05:00:00 2023-11-30 21:00:00 -999.0000 5.19 -999.00 0.5000 0.3609 -999.0000 1.1 -999 0.2 99.0 -999.0000 30.4710 -999.0000 12.5
2023-12-01 05:15:00 2023-11-30 21:15:00 -999.0000 5.19 -999.00 0.4000 0.2610 -999.0000 1.1 -999 0.2 99.0 -999.0000 30.4740 -999.0000 12.5
2023-12-01 05:30:00 2023-11-30 21:30:00 -999.0000 5.19 -999.00 0.4000 0.2610 -999.0000 1.1 -999 0.1 99.0 -999.0000 30.4810 -999.0000 12.5
2023-12-01 05:45:00 2023-11-30 21:45:00 -999.0000 5.19 -999.00 0.5000 0.3609 -999.0000 1.1 -999 0.2 99.0 -999.0000 30.4780 -999.0000 12.5
2023-12-01 06:00:00 2023-11-30 22:00:00 -999.0000 5.19 -999.00 0.4000 0.2610 -999.0000 0.9 -999 0.1 99.0 -999.0000 30.4810 -999.0000 12.5
2023-12-01 06:15:00 2023-11-30 22:15:00 -999.0000 5.19 -999.00 0.4000 0.2610 -999.0000 0.9 -999 0.1 99.0 -999.0000 30.4810 -999.0000 12.5
2023-12-01 06:30:00 2023-11-30 22:30:00 -999.0000 5.19 -999.00 0.4000 0.2610 -999.0000 1.1 -999 0.1 99.0 -999.0000 30.4880 -999.0000 12.5
2023-12-01 06:45:00 2023-11-30 22:45:00 -999.0000 5.19 -999.00 0.5000 0.3609 -999.0000 0.9 -999 0.2 99.0 -999.0000 30.4840 -999.0000 12.5
2023-12-01 07:00:00 2023-11-30 23:00:00 -999.0000 5.19 -999.00 0.5000 0.3609 -999.0000 0.9 -999 0.1 99.0 -999.0000 30.4780 -999.0000 12.5
2023-12-01 07:15:00 2023-11-30 23:15:00 -999.0000 5.19 -999.00 0.5000 0.3609 -999.0000 0.9 -999 0.1 99.0 -999.0000 30.4780 -999.0000 12.5
2023-12-01 07:30:00 2023-11-30 23:30:00 -999.0000 5.19 -999.00 0.5000 0.3609 -999.0000 0.9 -999 0.2 99.0 -999.0000 30.4640 -999.0000 12.5
2023-12-01 07:45:00 2023-11-30 23:45:00 -999.0000 5.19 -999.00 0.5000 0.3609 -999.0000 0.9 -999 0.1 99.0 -999.0000 30.4610 -999.0000 12.5
2023-12-01 08:00:00 2023-12-01 00:00:00 -999.0000 5.19 -999.00 0.5000 0.3609 -999.0000 0.9 -999 0.1 99.0 -999.0000 30.4610 -999.0000 12.5
2023-12-01 08:15:00 2023-12-01 00:15:00 -999.0000 5.19 -999.00 0.4000 0.2610 -999.0000 0.9 -999 0.1 99.0 -999.0000 30.4640 -999.0000 12.5
2023-12-01 08:30:00 2023-12-01 00:30:00 -999.0000 5.19 -999.00 0.3000 0.1611 -999.0000 0.9 -999 0.1 99.0 -999.0000 30.4580 -999.0000 12.5
2023-12-01 08:45:00 2023-12-01 00:45:00 -999.0000 5.19 -999.00 0.4000 0.2610 -999.0000 0.9 -999 0.1 99.0 -999.0000 30.4510 -999.0000 12.5
2023-12-01 09:00:00 2023-12-01 01:00:00 -999.0000 5.19 -999.00 0.5000 0.3609 -999.0000 0.9 -999 0.1 99.0 -999.0000 30.4380 -999.0000 12.5
2023-12-01 09:15:00 2023-12-01 01:15:00 -999.0000 5.19 -999.00 0.5000 0.3609 -999.0000 0.9 -999 0.1 99.0 -999.0000 30.4380 -999.0000 12.5
2023-12-01 09:30:00 2023-12-01 01:30:00 -999.0000 5.19 -999.00 0.5000 0.3609 -999.0000 0.9 -999 0.2 99.0 -999.0000 30.4380 -999.0000 12.5
2023-12-01 09:45:00 2023-12-01 01:45:00 -999.0000 5.19 -999.00 0.5000 0.3609 -999.0000 0.9 -999 0.2 99.0 -999.0000 30.4240 -999.0000 12.5
2023-12-01 10:00:00 2023-12-01 02:00:00 -999.0000 5.19 -999.00 0.5000 0.3609 -999.0000 0.9 -999 0.1 99.0 -999.0000 30.4210 -999.0000 12.5
2023-12-01 10:15:00 2023-12-01 02:15:00 -999.0000 5.19 -999.00 0.5000 0.3609 -999.0000 0.9 -999 0.2 99.0 -999.0000 30.4140 -999.0000 12.5
2023-12-01 10:30:00 2023-12-01 02:30:00 -999.0000 5.19 -999.00 0.6000 0.4608 -999.0000 0.9 -999 0.2 99.0 -999.0000 30.4140 -999.0000 12.5
2023-12-01 10:45:00 2023-12-01 02:45:00 -999.0000 5.19 -999.00 0.6000 0.4608 -999.0000 0.9 -999 0.2 99.0 -999.0000 30.4070 -999.0000 12.5
2023-12-01 11:00:00 2023-12-01 03:00:00 -999.0000 5.19 -999.00 0.5000 0.3609 -999.0000 1.1 -999 0.1 99.0 -999.0000 30.3940 -999.0000 12.5
2023-12-01 11:15:00 2023-12-01 03:15:00 -999.0000 5.19 -999.00 0.5000 0.3609 -999.0000 0.9 -999 0.1 99.0 -999.0000 30.3810 -999.0000 12.5
2023-12-01 11:30:00 2023-12-01 03:30:00 -999.0000 5.19 -999.00 0.5000 0.3609 -999.0000 0.9 -999 0.2 99.0 -999.0000 30.3740 -999.0000 12.5
2023-12-01 11:45:00 2023-12-01 03:45:00 -999.0000 5.19 -999.00 0.5000 0.3609 -999.0000 0.9 -999 0.1 99.0 -999.0000 30.3610 -999.0000 12.5
2023-12-01 12:00:00 2023-12-01 04:00:00 -999.0000 5.19 -999.00 0.5000 0.3609 -999.0000 0.9 -999 0.2 99.0 -999.0000 30.3470 -999.0000 12.5
2023-12-01 12:15:00 2023-12-01 04:15:00 -999.0000 5.19 -999.00 0.5000 0.3609 -999.0000 0.9 -999 0.2 99.0 -999.0000 30.3370 -999.0000 12.5
2023-12-01 12:30:00 2023-12-01 04:30:00 -999.0000 5.19 -999.00 0.5000 0.3609 -999.0000 0.9 -999 0.1 99.0 -999.0000 30.3340 -999.0000 12.5
2023-12-01 12:45:00 2023-12-01 04:45:00 -999.0000 5.19 -999.00 0.5000 0.3609 -999.0000 0.9 -999 0.1 99.0 -999.0000 30.3240 -999.0000 12.5
2023-12-01 13:00:00 2023-12-01 05:00:00 -999.0000 5.19 -999.00 0.5000 0.3609 -999.0000 0.9 -999 0.1 99.0 -999.0000 30.3310 -999.0000 12.5
2023-12-01 13:15:00 2023-12-01 05:15:00 -999.0000 5.19 -999.00 0.5000 0.3609 -999.0000 0.9 -999 0.1 99.0 -999.0000 30.3240 -999.0000 12.5
2023-12-01 13:30:00 2023-12-01 05:30:00 -999.0000 5.19 -999.00 0.5000 0.3609 -999.0000 0.9 -999 0.1 99.0 -999.0000 30.3170 -999.0000 12.5
2023-12-01 13:45:00 2023-12-01 05:45:00 -999.0000 5.19 -999.00 0.5000 0.3609 -999.0000 0.9 -999 0.1 99.0 -999.0000 30.3000 -999.0000 12.5
2023-12-01 14:00:00 2023-12-01 06:00:00 -999.0000 5.19 -999.00 0.5000 0.3609 -999.0000 0.9 -999 0.1 99.0 -999.0000 30.2870 -999.0000 12.5
2023-12-01 14:15:00 2023-12-01 06:15:00 -999.0000 5.19 -999.00 0.5000 0.3609 -999.0000 0.9 -999 0.1 99.0 -999.0000 30.2900 -999.0000 12.5
2023-12-01 14:30:00 2023-12-01 06:30:00 -999.0000 5.19 -999.00 0.5000 0.3609 -999.0000 0.9 -999 0.1 99.0 -999.0000 30.3040 -999.0000 12.5
2023-12-01 14:45:00 2023-12-01 06:45:00 -999.0000 5.19 -999.00 0.5000 0.3609 -999.0000 0.9 -999 0.1 99.0 -999.0000 30.3140 -999.0000 12.5
2023-12-01 15:00:00 2023-12-01 07:00:00 -999.0000 5.19 -999.00 0.5000 0.3609 -999.0000 0.9 -999 0.1 99.0 -999.0000 30.3170 -999.0000 12.5
2023-12-01 15:15:00 2023-12-01 07:15:00 -999.0000 5.19 -999.00 0.5000 0.3609 -999.0000 0.9 -999 0.1 99.0 -999.0000 30.3170 -999.0000 12.5
2023-12-01 15:30:00 2023-12-01 07:30:00 -999.0000 5.19 -999.00 0.5000 0.3609 -999.0000 0.7 -999 0.1 99.0 -999.0000 30.3210 -999.0000 12.5
2023-12-01 15:45:00 2023-12-01 07:45:00 -999.0000 5.19 -999.00 0.5000 0.3609 -999.0000 0.9 -999 0.1 99.0 -999.0000 30.3170 -999.0000 12.5
2023-12-01 16:00:00 2023-12-01 08:00:00 -999.0000 5.19 -999.00 0.5000 0.3609 -999.0000 0.7 -999 0.1 99.0 -999.0000 30.3140 -999.0000 12.5
2023-12-01 16:15:00 2023-12-01 08:15:00 -999.0000 5.19 -999.00 0.4000 0.2610 -999.0000 0.9 -999 0.1 99.0 -999.0000 30.3240 -999.0000 12.5
2023-12-01 16:30:00 2023-12-01 08:30:00 -999.0000 5.19 -999.00 0.4000 0.2610 -999.0000 0.9 -999 0.1 99.0 -999.0000 30.3140 -999.0000 12.5
2023-12-01 16:45:00 2023-12-01 08:45:00 -999.0000 5.19 -999.00 0.4000 0.2610 -999.0000 0.9 -999 0.1 99.0 -999.0000 30.3140 -999.0000 12.5
2023-12-01 17:00:00 2023-12-01 09:00:00 -999.0000 5.19 -999.00 0.5000 0.3609 -999.0000 0.9 -999 0.1 99.0 -999.0000 30.3270 -999.0000 12.5
2023-12-01 17:15:00 2023-12-01 09:15:00 -999.0000 5.19 -999.00 0.6000 0.4608 -999.0000 0.9 -999 0.1 99.0 -999.0000 30.3370 -999.0000 12.5
2023-12-01 17:30:00 2023-12-01 09:30:00 -999.0000 5.19 -999.00 0.7000 0.4201 -999.0000 0.9 -999 0.1 98.0 -999.0000 30.3310 -999.0000 12.5
2023-12-01 17:45:00 2023-12-01 09:45:00 -999.0000 5.19 -999.00 0.7000 0.4201 -999.0000 1.1 -999 0.1 98.0 -999.0000 30.3340 -999.0000 12.5
2023-12-01 18:00:00 2023-12-01 10:00:00 -999.0000 5.19 -999.00 0.6000 0.3204 -999.0000 0.9 -999 0.1 98.0 -999.0000 30.3370 -999.0000 12.5
2023-12-01 18:15:00 2023-12-01 10:15:00 -999.0000 5.19 -999.00 0.6000 0.3204 -999.0000 1.1 -999 0.1 98.0 -999.0000 30.3440 -999.0000 12.5
2023-12-01 18:30:00 2023-12-01 10:30:00 -999.0000 5.19 -999.00 0.5000 0.3609 -999.0000 0.9 -999 0.1 99.0 -999.0000 30.3470 -999.0000 12.5
2023-12-01 18:45:00 2023-12-01 10:45:00 -999.0000 5.19 -999.00 0.5000 0.3609 -999.0000 0.9 -999 0.1 99.0 -999.0000 30.3470 -999.0000 12.5
2023-12-01 19:00:00 2023-12-01 11:00:00 -999.0000 5.19 -999.00 0.5000 0.3609 -999.0000 0.9 -999 0.1 99.0 -999.0000 30.3470 -999.0000 12.5
2023-12-01 19:15:00 2023-12-01 11:15:00 -999.0000 5.19 -999.00 0.6000 0.3204 -999.0000 0.9 -999 0.1 98.0 -999.0000 30.3510 -999.0000 12.5
2023-12-01 19:30:00 2023-12-01 11:30:00 -999.0000 5.19 -999.00 0.7000 0.4201 -999.0000 1.1 -999 0.1 98.0 -999.0000 30.3510 -999.0000 12.5
2023-12-01 19:45:00 2023-12-01 11:45:00 -999.0000 5.19 -999.00 0.6000 0.3204 -999.0000 0.9 -999 0.1 98.0 -999.0000 30.3610 -999.0000 12.5
2023-12-01 20:00:00 2023-12-01 12:00:00 -999.0000 5.19 -999.00 0.7000 0.4201 -999.0000 0.9 -999 0.1 98.0 -999.0000 30.3670 -999.0000 12.5
2023-12-01 20:15:00 2023-12-01 12:15:00 -999.0000 5.19 -999.00 0.5000 0.2206 -999.0000 1.1 -999 0.1 98.0 -999.0000 30.3870 -999.0000 12.5
2023-12-01 20:30:00 2023-12-01 12:30:00 -999.0000 5.19 -999.00 0.7000 0.4201 -999.0000 1.1 -999 0.2 98.0 -999.0000 30.3910 -999.0000 12.5
2023-12-01 20:45:00 2023-12-01 12:45:00 -999.0000 5.19 -999.00 0.8000 0.5199 -999.0000 1.1 -999 0.2 98.0 -999.0000 30.3840 -999.0000 12.5
2023-12-01 21:00:00 2023-12-01 13:00:00 -999.0000 5.19 -999.00 0.6000 0.3204 -999.0000 0.9 -999 0.2 98.0 -999.0000 30.3910 -999.0000 12.5
2023-12-01 21:15:00 2023-12-01 13:15:00 -999.0000 5.21 -999.00 0.6000 0.4608 -999.0000 1.1 -999 0.1 99.0 -999.0000 30.3940 -999.0000 12.5
2023-12-01 21:30:00 2023-12-01 13:30:00 -999.0000 5.23 -999.00 1.0000 0.7194 -999.0000 1.1 -999 0.2 98.0 -999.0000 30.4070 -999.0000 12.5
2023-12-01 21:45:00 2023-12-01 13:45:00 -999.0000 5.26 -999.00 0.8000 0.5199 -999.0000 0.9 -999 0.2 98.0 -999.0000 30.4180 -999.0000 12.5
2023-12-01 22:00:00 2023-12-01 14:00:00 -999.0000 5.29 -999.00 0.9000 0.6197 -999.0000 1.1 -999 0.3 98.0 -999.0000 30.4180 -999.0000 12.5
2023-12-01 22:15:00 2023-12-01 14:15:00 -999.0000 5.31 -999.00 0.8000 0.6606 -999.0000 1.1 -999 0.3 99.0 -999.0000 30.4240 -999.0000 12.5
2023-12-01 22:30:00 2023-12-01 14:30:00 -999.0000 5.34 -999.00 0.7000 0.5607 -999.0000 1.1 -999 0.2 99.0 -999.0000 30.4310 -999.0000 12.5
2023-12-01 22:45:00 2023-12-01 14:45:00 -999.0000 5.35 -999.00 0.7000 0.5607 -999.0000 1.1 -999 0.2 99.0 -999.0000 30.4340 -999.0000 12.5
2023-12-01 23:00:00 2023-12-01 15:00:00 -999.0000 5.38 -999.00 0.7000 0.5607 -999.0000 1.3 -999 0.2 99.0 -999.0000 30.4440 -999.0000 12.5
2023-12-01 23:15:00 2023-12-01 15:15:00 -999.0000 5.40 -999.00 0.5000 0.3609 -999.0000 1.3 -999 0.2 99.0 -999.0000 30.4410 -999.0000 12.5
2023-12-01 23:30:00 2023-12-01 15:30:00 -999.0000 5.41 -999.00 0.4000 0.2610 -999.0000 1.1 -999 0.1 99.0 -999.0000 30.4480 -999.0000 12.5
2023-12-01 23:45:00 2023-12-01 15:45:00 -999.0000 5.42 -999.00 0.5000 0.3609 -999.0000 1.1 -999 0.1 99.0 -999.0000 30.4580 -999.0000 12.5
2023-12-02 00:00:00 2023-12-01 16:00:00 -999.0000 5.43 -999.00 0.6000 0.6000 -999.0000 1.1 -999 0.2 100.0 -999.0000 30.4610 -999.0000 12.5
2023-12-02 00:15:00 2023-12-01 16:15:00 -999.0000 5.45 -999.00 0.5000 0.3609 -999.0000 1.1 -999 0.1 99.0 -999.0000 30.4710 -999.0000 12.5
2023-12-02 00:30:00 2023-12-01 16:30:00 -999.0000 5.46 -999.00 0.5000 0.5000 -999.0000 1.1 -999 0.2 100.0 -999.0000 30.4710 -999.0000 12.5
2023-12-02 00:45:00 2023-12-01 16:45:00 -999.0000 5.47 -999.00 0.6000 0.6000 -999.0000 0.9 -999 0.2 100.0 -999.0000 30.4740 -999.0000 12.5
2023-12-02 01:00:00 2023-12-01 17:00:00 -999.0000 5.49 -999.00 0.5000 0.3609 -999.0000 0.9 -999 0.1 99.0 -999.0000 30.4810 -999.0000 12.5
2023-12-02 01:15:00 2023-12-01 17:15:00 -999.0000 5.50 -999.00 0.7000 0.7000 -999.0000 0.9 -999 0.2 100.0 -999.0000 30.4880 -999.0000 12.5
2023-12-02 01:30:00 2023-12-01 17:30:00 -999.0000 5.51 -999.00 0.5000 0.3609 -999.0000 1.1 -999 0.2 99.0 -999.0000 30.4940 -999.0000 12.5
2023-12-02 01:45:00 2023-12-01 17:45:00 -999.0000 5.52 -999.00 0.4000 0.2610 -999.0000 0.9 -999 0.1 99.0 -999.0000 30.4910 -999.0000 12.5
2023-12-02 02:00:00 2023-12-01 18:00:00 -999.0000 5.53 -999.00 0.4000 0.2610 -999.0000 0.9 -999 0.1 99.0 -999.0000 30.4910 -999.0000 12.5
2023-12-02 02:15:00 2023-12-01 18:15:00 -999.0000 5.53 -999.00 0.4000 0.2610 -999.0000 0.9 -999 0.0 99.0 -999.0000 30.4780 -999.0000 12.5
2023-12-02 02:30:00 2023-12-01 18:30:00 -999.0000 5.53 -999.00 0.4000 0.2610 -999.0000 1.1 -999 0.0 99.0 -999.0000 30.4740 -999.0000 12.5
2023-12-02 02:45:00 2023-12-01 18:45:00 -999.0000 5.54 -999.00 0.4000 0.2610 -999.0000 0.9 -999 0.0 99.0 -999.0000 30.4780 -999.0000 12.5
2023-12-02 03:00:00 2023-12-01 19:00:00 -999.0000 5.54 -999.00 0.5000 0.3609 -999.0000 0.9 -999 0.1 99.0 -999.0000 30.4740 -999.0000 12.5
2023-12-02 03:15:00 2023-12-01 19:15:00 -999.0000 5.55 -999.00 0.5000 0.3609 -999.0000 0.9 -999 0.1 99.0 -999.0000 30.4780 -999.0000 12.5
2023-12-02 03:30:00 2023-12-01 19:30:00 -999.0000 5.55 -999.00 0.5000 0.3609 -999.0000 0.9 -999 0.1 99.0 -999.0000 30.4780 -999.0000 12.5
2023-12-02 03:45:00 2023-12-01 19:45:00 -999.0000 5.55 -999.00 0.5000 0.3609 -999.0000 0.9 -999 0.0 99.0 -999.0000 30.4740 -999.0000 12.5
2023-12-02 04:00:00 2023-12-01 20:00:00 -999.0000 5.56 -999.00 0.5000 0.3609 -999.0000 0.9 -999 0.0 99.0 -999.0000 30.4740 -999.0000 12.5
2023-12-02 04:15:00 2023-12-01 20:15:00 -999.0000 5.56 -999.00 0.5000 0.3609 -999.0000 0.9 -999 0.0 99.0 -999.0000 30.4710 -999.0000 12.5
2023-12-02 04:30:00 2023-12-01 20:30:00 -999.0000 5.57 -999.00 0.5000 0.3609 -999.0000 0.9 -999 0.0 99.0 -999.0000 30.4740 -999.0000 12.5
2023-12-02 04:45:00 2023-12-01 20:45:00 -999.0000 5.57 -999.00 0.5000 0.3609 -999.0000 0.9 -999 0.0 99.0 -999.0000 30.4710 -999.0000 12.5
2023-12-02 05:00:00 2023-12-01 21:00:00 -999.0000 5.57 -999.00 0.5000 0.3609 -999.0000 0.9 -999 0.0 99.0 -999.0000 30.4680 -999.0000 12.5
2023-12-02 05:15:00 2023-12-01 21:15:00 -999.0000 5.57 -999.00 0.4000 0.2610 -999.0000 0.9 -999 0.0 99.0 -999.0000 30.4710 -999.0000 12.5
2023-12-02 05:30:00 2023-12-01 21:30:00 -999.0000 5.57 -999.00 0.4000 0.2610 -999.0000 0.9 -999 0.0 99.0 -999.0000 30.4740 -999.0000 12.5
2023-12-02 05:45:00 2023-12-01 21:45:00 -999.0000 5.58 -999.00 0.4000 0.2610 -999.0000 0.9 -999 0.0 99.0 -999.0000 30.4680 -999.0000 12.5
2023-12-02 06:00:00 2023-12-01 22:00:00 -999.0000 5.58 -999.00 0.4000 0.2610 -999.0000 0.9 -999 0.0 99.0 -999.0000 30.4710 -999.0000 12.5
2023-12-02 06:15:00 2023-12-01 22:15:00 -999.0000 5.58 -999.00 0.4000 0.2610 -999.0000 0.9 -999 0.0 99.0 -999.0000 30.4610 -999.0000 12.5
2023-12-02 06:30:00 2023-12-01 22:30:00 -999.0000 5.59 -999.00 0.4000 0.2610 -999.0000 0.9 -999 0.0 99.0 -999.0000 30.4640 -999.0000 12.5
2023-12-02 06:45:00 2023-12-01 22:45:00 -999.0000 5.59 -999.00 0.4000 0.2610 -999.0000 0.9 -999 0.0 99.0 -999.0000 30.4610 -999.0000 12.5
2023-12-02 07:00:00 2023-12-01 23:00:00 -999.0000 5.59 -999.00 0.4000 0.2610 -999.0000 0.9 -999 0.0 99.0 -999.0000 30.4580 -999.0000 12.5
2023-12-02 07:15:00 2023-12-01 23:15:00 -999.0000 5.59 -999.00 0.4000 0.2610 -999.0000 0.9 -999 0.0 99.0 -999.0000 30.4440 -999.0000 12.5
2023-12-02 07:30:00 2023-12-01 23:30:00 -999.0000 5.60 -999.00 0.4000 0.2610 -999.0000 0.7 -999 0.1 99.0 -999.0000 30.4440 -999.0000 12.5
2023-12-02 07:45:00 2023-12-01 23:45:00 -999.0000 5.61 -999.00 0.5000 0.3609 -999.0000 0.9 -999 0.0 99.0 -999.0000 30.4340 -999.0000 12.5
2023-12-02 08:00:00 2023-12-02 00:00:00 -999.0000 5.61 -999.00 0.5000 0.3609 -999.0000 0.9 -999 0.1 99.0 -999.0000 30.4280 -999.0000 12.5
2023-12-02 08:15:00 2023-12-02 00:15:00 -999.0000 5.62 -999.00 0.4000 0.4000 -999.0000 0.9 -999 0.1 100.0 -999.0000 30.4040 -999.0000 12.5
2023-12-02 08:30:00 2023-12-02 00:30:00 -999.0000 5.63 -999.00 0.4000 0.2610 -999.0000 0.9 -999 0.1 99.0 -999.0000 30.3940 -999.0000 12.5
2023-12-02 08:45:00 2023-12-02 00:45:00 -999.0000 5.64 -999.00 0.4000 0.4000 -999.0000 0.9 -999 0.1 100.0 -999.0000 30.3970 -999.0000 12.5
2023-12-02 09:00:00 2023-12-02 01:00:00 -999.0000 5.65 -999.00 0.4000 0.4000 -999.0000 0.9 -999 0.1 100.0 -999.0000 30.3810 -999.0000 12.5
2023-12-02 09:15:00 2023-12-02 01:15:00 -999.0000 5.66 -999.00 0.4000 0.4000 -999.0000 0.9 -999 0.1 100.0 -999.0000 30.3810 -999.0000 12.5
2023-12-02 09:30:00 2023-12-02 01:30:00 -999.0000 5.68 -999.00 0.4000 0.4000 -999.0000 0.9 -999 0.1 100.0 -999.0000 30.3770 -999.0000 12.5
2023-12-02 09:45:00 2023-12-02 01:45:00 -999.0000 5.70 -999.00 0.4000 0.4000 -999.0000 0.9 -999 0.1 100.0 -999.0000 30.3640 -999.0000 12.5
2023-12-02 10:00:00 2023-12-02 02:00:00 -999.0000 5.73 -999.00 0.4000 0.4000 -999.0000 0.9 -999 0.1 100.0 -999.0000 30.3470 -999.0000 12.5
2023-12-02 10:15:00 2023-12-02 02:15:00 -999.0000 5.74 -999.00 0.4000 0.4000 -999.0000 0.9 -999 0.1 100.0 -999.0000 30.3470 -999.0000 12.5
2023-12-02 10:30:00 2023-12-02 02:30:00 -999.0000 5.75 -999.00 0.4000 0.4000 -999.0000 1.1 -999 0.1 100.0 -999.0000 30.3410 -999.0000 12.5
2023-12-02 10:45:00 2023-12-02 02:45:00 -999.0000 5.76 -999.00 0.4000 0.4000 -999.0000 0.9 -999 0.1 100.0 -999.0000 30.3170 -999.0000 12.5
2023-12-02 11:00:00 2023-12-02 03:00:00 -999.0000 5.77 -999.00 0.4000 0.4000 -999.0000 0.9 -999 0.1 100.0 -999.0000 30.3140 -999.0000 12.5
2023-12-02 11:15:00 2023-12-02 03:15:00 -999.0000 5.79 -999.00 0.4000 0.4000 -999.0000 0.9 -999 0.1 100.0 -999.0000 30.3000 -999.0000 12.5
2023-12-02 11:30:00 2023-12-02 03:30:00 -999.0000 5.79 -999.00 0.4000 0.4000 -999.0000 0.9 -999 0.1 100.0 -999.0000 30.2870 -999.0000 12.5
2023-12-02 11:45:00 2023-12-02 03:45:00 -999.0000 5.81 -999.00 0.4000 0.4000 -999.0000 0.9 -999 0.1 100.0 -999.0000 30.2770 -999.0000 12.5
2023-12-02 12:00:00 2023-12-02 04:00:00 -999.0000 5.81 -999.00 0.4000 0.4000 -999.0000 0.9 -999 0.1 100.0 -999.0000 30.2640 -999.0000 12.5
2023-12-02 12:15:00 2023-12-02 04:15:00 -999.0000 5.82 -999.00 0.4000 0.4000 -999.0000 0.9 -999 0.1 100.0 -999.0000 30.2540 -999.0000 12.5
2023-12-02 12:30:00 2023-12-02 04:30:00 -999.0000 5.84 -999.00 0.4000 0.4000 -999.0000 0.9 -999 0.1 100.0 -999.0000 30.2440 -999.0000 12.5
2023-12-02 12:45:00 2023-12-02 04:45:00 -999.0000 5.85 -999.00 0.4000 0.4000 -999.0000 0.9 -999 0.1 100.0 -999.0000 30.2600 -999.0000 12.5
2023-12-02 13:00:00 2023-12-02 05:00:00 -999.0000 5.86 -999.00 0.4000 0.4000 -999.0000 0.9 -999 0.1 100.0 -999.0000 30.2500 -999.0000 12.5
2023-12-02 13:15:00 2023-12-02 05:15:00 -999.0000 5.87 -999.00 0.3000 0.3000 -999.0000 0.9 -999 0.1 100.0 -999.0000 30.2370 -999.0000 12.5
2023-12-02 13:30:00 2023-12-02 05:30:00 -999.0000 5.87 -999.00 0.3000 0.3000 -999.0000 0.9 -999 0.1 100.0 -999.0000 30.2270 -999.0000 12.5
2023-12-02 13:45:00 2023-12-02 05:45:00 -999.0000 5.88 -999.00 0.4000 0.4000 -999.0000 0.9 -999 0.1 100.0 -999.0000 30.2270 -999.0000 12.5
2023-12-02 14:00:00 2023-12-02 06:00:00 -999.0000 5.88 -999.00 0.4000 0.4000 -999.0000 0.9 -999 0.1 100.0 -999.0000 30.2100 -999.0000 12.5
2023-12-02 14:15:00 2023-12-02 06:15:00 -999.0000 5.88 -999.00 0.4000 0.4000 -999.0000 0.9 -999 0.1 100.0 -999.0000 30.2370 -999.0000 12.5
2023-12-02 14:30:00 2023-12-02 06:30:00 -999.0000 5.90 -999.00 0.7000 0.7000 -999.0000 0.9 -999 0.2 100.0 -999.0000 30.2370 -999.0000 12.5
2023-12-02 14:45:00 2023-12-02 06:45:00 -999.0000 5.91 -999.00 0.4000 0.2610 -999.0000 0.9 -999 0.1 99.0 -999.0000 30.2600 -999.0000 12.5
2023-12-02 15:00:00 2023-12-02 07:00:00 -999.0000 5.92 -999.00 0.4000 0.4000 -999.0000 0.9 -999 0.1 100.0 -999.0000 30.2740 -999.0000 12.5
2023-12-02 15:15:00 2023-12-02 07:15:00 -999.0000 5.94 -999.00 0.6000 0.4608 -999.0000 0.9 -999 0.1 99.0 -999.0000 30.2800 -999.0000 12.5
2023-12-02 15:30:00 2023-12-02 07:30:00 -999.0000 5.98 -999.00 0.6000 0.4608 -999.0000 0.9 -999 0.2 99.0 -999.0000 30.2870 -999.0000 12.5
2023-12-02 15:45:00 2023-12-02 07:45:00 -999.0000 6.00 -999.00 0.6000 0.4608 -999.0000 0.9 -999 0.2 99.0 -999.0000 30.2940 -999.0000 12.5
2023-12-02 16:00:00 2023-12-02 08:00:00 -999.0000 6.03 -999.00 0.8000 0.6606 -999.0000 0.9 -999 0.3 99.0 -999.0000 30.3100 -999.0000 12.5
2023-12-02 16:15:00 2023-12-02 08:15:00 -999.0000 6.05 -999.00 0.6000 0.4608 -999.0000 0.9 -999 0.3 99.0 -999.0000 30.3270 -999.0000 12.5
2023-12-02 16:30:00 2023-12-02 08:30:00 -999.0000 6.06 -999.00 0.5000 0.3609 -999.0000 0.9 -999 0.2 99.0 -999.0000 30.3310 -999.0000 12.5
2023-12-02 16:45:00 2023-12-02 08:45:00 -999.0000 6.07 -999.00 0.5000 0.3609 -999.0000 0.9 -999 0.2 99.0 -999.0000 30.3270 -999.0000 12.5
2023-12-02 17:00:00 2023-12-02 09:00:00 -999.0000 6.08 -999.00 0.4000 0.2610 -999.0000 0.9 -999 0.2 99.0 -999.0000 30.3270 -999.0000 12.5
2023-12-02 17:15:00 2023-12-02 09:15:00 -999.0000 6.09 -999.00 0.5000 0.5000 -999.0000 0.9 -999 0.2 100.0 -999.0000 30.3440 -999.0000 12.5
2023-12-02 17:30:00 2023-12-02 09:30:00 -999.0000 6.10 -999.00 0.8000 0.6606 -999.0000 0.9 -999 0.5 99.0 -999.0000 30.3510 -999.0000 12.5
2023-12-02 17:45:00 2023-12-02 09:45:00 -999.0000 6.11 -999.00 1.0000 0.7194 -999.0000 0.9 -999 0.6 98.0 -999.0000 30.3610 -999.0000 12.5
2023-12-02 18:00:00 2023-12-02 10:00:00 -999.0000 6.12 -999.00 1.3000 1.0188 -999.0000 0.9 -999 0.8 98.0 -999.0000 30.3710 -999.0000 12.6
2023-12-02 18:15:00 2023-12-02 10:15:00 -999.0000 6.15 -999.00 1.5000 0.6392 -999.0000 1.3 -999 1.0 94.0 -999.0000 30.3810 -999.0000 12.7
2023-12-02 18:30:00 2023-12-02 10:30:00 -999.0000 6.17 -999.00 1.6000 1.0310 -999.0000 1.4 -999 1.0 96.0 -999.0000 30.3910 -999.0000 12.8
2023-12-02 18:45:00 2023-12-02 10:45:00 -999.0000 6.18 -999.00 1.2000 0.7766 -999.0000 1.6 -999 0.9 97.0 -999.0000 30.4010 -999.0000 12.8
2023-12-02 19:00:00 2023-12-02 11:00:00 -999.0000 6.20 -999.00 1.2000 0.9190 -999.0000 1.6 -999 0.9 98.0 -999.0000 30.4010 -999.0000 12.8
2023-12-02 19:15:00 2023-12-02 11:15:00 -999.0000 6.21 -999.00 0.9000 0.6197 -999.0000 1.8 -999 0.7 98.0 -999.0000 30.4040 -999.0000 12.7
2023-12-02 19:30:00 2023-12-02 11:30:00 -999.0000 6.22 -999.00 1.3000 1.1600 -999.0000 1.8 -999 0.9 99.0 -999.0000 30.4140 -999.0000 12.7
2023-12-02 19:45:00 2023-12-02 11:45:00 -999.0000 6.23 -999.00 1.1000 0.8192 -999.0000 1.8 -999 0.9 98.0 -999.0000 30.4140 -999.0000 12.7
2023-12-02 20:00:00 2023-12-02 12:00:00 -999.0000 6.24 -999.00 1.1000 0.9602 -999.0000 1.8 -999 0.8 99.0 -999.0000 30.4180 -999.0000 12.7
2023-12-02 20:15:00 2023-12-02 12:15:00 -999.0000 6.25 -999.00 1.2000 0.9190 -999.0000 1.8 -999 0.9 98.0 -999.0000 30.4240 -999.0000 12.8
2023-12-02 20:30:00 2023-12-02 12:30:00 -999.0000 6.26 -999.00 1.3000 1.0188 -999.0000 1.8 -999 1.0 98.0 -999.0000 30.4310 -999.0000 12.7
2023-12-02 20:45:00 2023-12-02 12:45:00 -999.0000 6.27 -999.00 1.3000 1.0188 -999.0000 1.8 -999 0.9 98.0 -999.0000 30.4280 -999.0000 12.7
2023-12-02 21:00:00 2023-12-02 13:00:00 -999.0000 6.28 -999.00 1.0000 0.7194 -999.0000 1.8 -999 0.7 98.0 -999.0000 30.4340 -999.0000 12.7
2023-12-02 21:15:00 2023-12-02 13:15:00 -999.0000 6.28 -999.00 0.8000 0.5199 -999.0000 1.8 -999 0.4 98.0 -999.0000 30.4480 -999.0000 12.6
2023-12-02 21:30:00 2023-12-02 13:30:00 -999.0000 6.28 -999.00 0.4000 0.2610 -999.0000 1.6 -999 0.2 99.0 -999.0000 30.4540 -999.0000 12.6
2023-12-02 21:45:00 2023-12-02 13:45:00 -999.0000 6.28 -999.00 0.7000 0.4201 -999.0000 1.4 -999 0.2 98.0 -999.0000 30.4640 -999.0000 12.6
2023-12-02 22:00:00 2023-12-02 14:00:00 -999.0000 6.29 -999.00 0.6000 0.4608 -999.0000 1.3 -999 0.2 99.0 -999.0000 30.4740 -999.0000 12.6
2023-12-02 22:15:00 2023-12-02 14:15:00 -999.0000 6.30 -999.00 0.6000 0.4608 -999.0000 1.3 -999 0.3 99.0 -999.0000 30.4740 -999.0000 12.5
2023-12-02 22:30:00 2023-12-02 14:30:00 -999.0000 6.31 -999.00 0.8000 0.8000 -999.0000 1.3 -999 0.4 100.0 -999.0000 30.4810 -999.0000 12.5
2023-12-02 22:45:00 2023-12-02 14:45:00 -999.0000 6.33 -999.00 1.1000 0.8192 -999.0000 1.3 -999 0.7 98.0 -999.0000 30.4840 -999.0000 12.5
2023-12-02 23:00:00 2023-12-02 15:00:00 -999.0000 6.34 -999.00 0.8000 0.6606 -999.0000 1.3 -999 0.4 99.0 -999.0000 30.5050 -999.0000 12.5
2023-12-02 23:15:00 2023-12-02 15:15:00 -999.0000 6.35 -999.00 0.8000 0.6606 -999.0000 1.3 -999 0.4 99.0 -999.0000 30.5150 -999.0000 12.5
2023-12-02 23:30:00 2023-12-02 15:30:00 -999.0000 6.36 -999.00 0.6000 0.4608 -999.0000 1.4 -999 0.3 99.0 -999.0000 30.5180 -999.0000 12.5
2023-12-02 23:45:00 2023-12-02 15:45:00 -999.0000 6.37 -999.00 0.6000 0.4608 -999.0000 1.3 -999 0.3 99.0 -999.0000 30.5280 -999.0000 12.5
2023-12-03 00:00:00 2023-12-02 16:00:00 -999.0000 6.37 -999.00 0.5000 0.3609 -999.0000 1.3 -999 0.2 99.0 -999.0000 30.5310 -999.0000 12.5
2023-12-03 00:15:00 2023-12-02 16:15:00 -999.0000 6.37 -999.00 0.5000 0.3609 -999.0000 1.3 -999 0.2 99.0 -999.0000 30.5350 -999.0000 12.5
2023-12-03 00:30:00 2023-12-02 16:30:00 -999.0000 6.37 -999.00 0.5000 0.3609 -999.0000 1.3 -999 0.1 99.0 -999.0000 30.5380 -999.0000 12.5
2023-12-03 00:45:00 2023-12-02 16:45:00 -999.0000 6.37 -999.00 0.5000 0.3609 -999.0000 1.1 -999 0.1 99.0 -999.0000 30.5410 -999.0000 12.5
2023-12-03 01:00:00 2023-12-02 17:00:00 -999.0000 6.37 -999.00 0.5000 0.3609 -999.0000 1.1 -999 0.1 99.0 -999.0000 30.5350 -999.0000 12.5
2023-12-03 01:15:00 2023-12-02 17:15:00 -999.0000 6.38 -999.00 0.4000 0.2610 -999.0000 1.1 -999 0.1 99.0 -999.0000 30.5410 -999.0000 12.5
2023-12-03 01:30:00 2023-12-02 17:30:00 -999.0000 6.38 -999.00 0.5000 0.3609 -999.0000 1.1 -999 0.1 99.0 -999.0000 30.5450 -999.0000 12.5
2023-12-03 01:45:00 2023-12-02 17:45:00 -999.0000 6.38 -999.00 0.4000 0.2610 -999.0000 0.9 -999 0.1 99.0 -999.0000 30.5550 -999.0000 12.5
2023-12-03 02:00:00 2023-12-02 18:00:00 -999.0000 6.38 -999.00 0.4000 0.2610 -999.0000 0.9 -999 0.0 99.0 -999.0000 30.5510 -999.0000 12.5
2023-12-03 02:15:00 2023-12-02 18:15:00 -999.0000 6.38 -999.00 0.5000 0.3609 -999.0000 1.1 -999 0.0 99.0 -999.0000 30.5510 -999.0000 12.5
2023-12-03 02:30:00 2023-12-02 18:30:00 -999.0000 6.38 -999.00 0.5000 0.3609 -999.0000 0.9 -999 0.0 99.0 -999.0000 30.5550 -999.0000 12.5
2023-12-03 02:45:00 2023-12-02 18:45:00 -999.0000 6.38 -999.00 0.4000 0.2610 -999.0000 0.9 -999 0.0 99.0 -999.0000 30.5550 -999.0000 12.5
2023-12-03 03:00:00 2023-12-02 19:00:00 -999.0000 6.38 -999.00 0.4000 0.2610 -999.0000 0.9 -999 0.0 99.0 -999.0000 30.5350 -999.0000 12.5
2023-12-03 03:15:00 2023-12-02 19:15:00 -999.0000 6.38 -999.00 0.5000 0.5000 -999.0000 0.7 -999 0.1 100.0 -999.0000 30.5410 -999.0000 12.5
2023-12-03 03:30:00 2023-12-02 19:30:00 -999.0000 6.39 -999.00 0.4000 0.2610 -999.0000 0.9 -999 0.1 99.0 -999.0000 30.5480 -999.0000 12.5
2023-12-03 03:45:00 2023-12-02 19:45:00 -999.0000 6.39 -999.00 0.4000 0.4000 -999.0000 0.9 -999 0.1 100.0 -999.0000 30.5410 -999.0000 12.5
2023-12-03 04:00:00 2023-12-02 20:00:00 -999.0000 6.39 -999.00 0.4000 0.4000 -999.0000 0.9 -999 0.1 100.0 -999.0000 30.5510 -999.0000 12.5
2023-12-03 04:15:00 2023-12-02 20:15:00 -999.0000 6.39 -999.00 0.4000 0.2610 -999.0000 0.9 -999 0.0 99.0 -999.0000 30.5450 -999.0000 12.5
2023-12-03 04:30:00 2023-12-02 20:30:00 -999.0000 6.39 -999.00 0.4000 0.4000 -999.0000 0.9 -999 0.0 100.0 -999.0000 30.5510 -999.0000 12.5
2023-12-03 04:45:00 2023-12-02 20:45:00 -999.0000 6.39 -999.00 0.4000 0.4000 -999.0000 0.9 -999 0.0 100.0 -999.0000 30.5450 -999.0000 12.5
2023-12-03 05:00:00 2023-12-02 21:00:00 -999.0000 6.39 -999.00 0.4000 0.4000 -999.0000 0.9 -999 0.0 100.0 -999.0000 30.5410 -999.0000 12.5
2023-12-03 05:15:00 2023-12-02 21:15:00 -999.0000 6.39 -999.00 0.4000 0.4000 -999.0000 0.9 -999 0.0 100.0 -999.0000 30.5450 -999.0000 12.5
2023-12-03 05:30:00 2023-12-02 21:30:00 -999.0000 6.39 -999.00 0.4000 0.2610 -999.0000 0.9 -999 0.0 99.0 -999.0000 30.5450 -999.0000 12.5
2023-12-03 05:45:00 2023-12-02 21:45:00 -999.0000 6.39 -999.00 0.4000 0.2610 -999.0000 0.9 -999 0.0 99.0 -999.0000 30.5410 -999.0000 12.5
2023-12-03 06:00:00 2023-12-02 22:00:00 -999.0000 6.39 -999.00 0.4000 0.2610 -999.0000 0.7 -999 0.0 99.0 -999.0000 30.5450 -999.0000 12.5
2023-12-03 06:15:00 2023-12-02 22:15:00 -999.0000 6.39 -999.00 0.4000 0.2610 -999.0000 0.9 -999 0.0 99.0 -999.0000 30.5410 -999.0000 12.5
2023-12-03 06:30:00 2023-12-02 22:30:00 -999.0000 6.39 -999.00 0.4000 0.2610 -999.0000 0.7 -999 0.0 99.0 -999.0000 30.5350 -999.0000 12.5
2023-12-03 06:45:00 2023-12-02 22:45:00 -999.0000 6.39 -999.00 0.4000 0.4000 -999.0000 0.7 -999 0.0 100.0 -999.0000 30.5310 -999.0000 12.5
2023-12-03 07:00:00 2023-12-02 23:00:00 -999.0000 6.39 -999.00 0.4000 0.4000 -999.0000 0.7 -999 0.0 100.0 -999.0000 30.5450 -999.0000 12.5
2023-12-03 07:15:00 2023-12-02 23:15:00 -999.0000 6.39 -999.00 0.4000 0.4000 -999.0000 0.9 -999 0.0 100.0 -999.0000 30.5380 -999.0000 12.5
2023-12-03 07:30:00 2023-12-02 23:30:00 -999.0000 6.39 -999.00 0.5000 0.5000 -999.0000 0.7 -999 0.1 100.0 -999.0000 30.5380 -999.0000 12.5
2023-12-03 07:45:00 2023-12-02 23:45:00 -999.0000 6.39 -999.00 0.5000 0.5000 -999.0000 0.9 -999 0.1 100.0 -999.0000 30.5350 -999.0000 12.5
2023-12-03 08:00:00 2023-12-03 00:00:00 -999.0000 6.39 -999.00 0.5000 0.3609 -999.0000 0.7 -999 0.1 99.0 -999.0000 30.5310 -999.0000 12.5
2023-12-03 08:15:00 2023-12-03 00:15:00 -999.0000 6.39 -999.00 0.5000 0.3609 -999.0000 0.9 -999 0.1 99.0 -999.0000 30.5380 -999.0000 12.4
2023-12-03 08:30:00 2023-12-03 00:30:00 -999.0000 6.39 -999.00 0.5000 0.3609 -999.0000 0.9 -999 0.1 99.0 -999.0000 30.5410 -999.0000 12.5
2023-12-03 08:45:00 2023-12-03 00:45:00 -999.0000 6.39 -999.00 0.5000 0.3609 -999.0000 0.7 -999 0.1 99.0 -999.0000 30.5410 -999.0000 12.5
2023-12-03 09:00:00 2023-12-03 01:00:00 -999.0000 6.39 -999.00 0.6000 0.4608 -999.0000 0.9 -999 0.1 99.0 -999.0000 30.5350 -999.0000 12.5
2023-12-03 09:15:00 2023-12-03 01:15:00 -999.0000 6.39 -999.00 0.5000 0.3609 -999.0000 0.9 -999 0.1 99.0 -999.0000 30.5280 -999.0000 12.5
2023-12-03 09:30:00 2023-12-03 01:30:00 -999.0000 6.39 -999.00 0.6000 0.4608 -999.0000 0.9 -999 0.1 99.0 -999.0000 30.5250 -999.0000 12.5
2023-12-03 09:45:00 2023-12-03 01:45:00 -999.0000 6.39 -999.00 0.5000 0.3609 -999.0000 0.9 -999 0.1 99.0 -999.0000 30.5180 -999.0000 12.5
2023-12-03 10:00:00 2023-12-03 02:00:00 -999.0000 6.39 -999.00 0.6000 0.4608 -999.0000 0.9 -999 0.1 99.0 -999.0000 30.5180 -999.0000 12.5
2023-12-03 10:15:00 2023-12-03 02:15:00 -999.0000 6.39 -999.00 0.6000 0.4608 -999.0000 0.9 -999 0.1 99.0 -999.0000 30.5180 -999.0000 12.5
2023-12-03 10:30:00 2023-12-03 02:30:00 -999.0000 6.39 -999.00 0.5000 0.3609 -999.0000 0.9 -999 0.1 99.0 -999.0000 30.5180 -999.0000 12.5
2023-12-03 10:45:00 2023-12-03 02:45:00 -999.0000 6.39 -999.00 0.6000 0.4608 -999.0000 0.9 -999 0.1 99.0 -999.0000 30.5180 -999.0000 12.5
2023-12-03 11:00:00 2023-12-03 03:00:00 -999.0000 6.39 -999.00 0.5000 0.3609 -999.0000 0.9 -999 0.1 99.0 -999.0000 30.5150 -999.0000 12.5
2023-12-03 11:15:00 2023-12-03 03:15:00 -999.0000 6.39 -999.00 0.6000 0.4608 -999.0000 0.9 -999 0.1 99.0 -999.0000 30.5110 -999.0000 12.5
2023-12-03 11:30:00 2023-12-03 03:30:00 -999.0000 6.39 -999.00 0.6000 0.4608 -999.0000 0.9 -999 0.2 99.0 -999.0000 30.5080 -999.0000 12.5
2023-12-03 11:45:00 2023-12-03 03:45:00 -999.0000 6.39 -999.00 0.6000 0.4608 -999.0000 0.9 -999 0.2 99.0 -999.0000 30.5010 -999.0000 12.5
2023-12-03 12:00:00 2023-12-03 04:00:00 -999.0000 6.39 -999.00 0.6000 0.4608 -999.0000 0.9 -999 0.2 99.0 -999.0000 30.4940 -999.0000 12.5
2023-12-03 12:15:00 2023-12-03 04:15:00 -999.0000 6.40 -999.00 0.6000 0.6000 -999.0000 0.9 -999 0.2 100.0 -999.0000 30.4880 -999.0000 12.5
2023-12-03 12:30:00 2023-12-03 04:30:00 -999.0000 6.40 -999.00 0.6000 0.4608 -999.0000 1.1 -999 0.2 99.0 -999.0000 30.4810 -999.0000 12.5
2023-12-03 12:45:00 2023-12-03 04:45:00 -999.0000 6.40 -999.00 0.6000 0.4608 -999.0000 1.1 -999 0.2 99.0 -999.0000 30.4740 -999.0000 12.5
2023-12-03 13:00:00 2023-12-03 05:00:00 -999.0000 6.40 -999.00 0.6000 0.6000 -999.0000 1.1 -999 0.3 100.0 -999.0000 30.4680 -999.0000 12.5
2023-12-03 13:15:00 2023-12-03 05:15:00 -999.0000 6.41 -999.00 0.6000 0.6000 -999.0000 1.1 -999 0.3 100.0 -999.0000 30.4680 -999.0000 12.5
2023-12-03 13:30:00 2023-12-03 05:30:00 -999.0000 6.41 -999.00 0.6000 0.6000 -999.0000 1.1 -999 0.3 100.0 -999.0000 30.4710 -999.0000 12.5
2023-12-03 13:45:00 2023-12-03 05:45:00 -999.0000 6.42 -999.00 0.6000 0.6000 -999.0000 1.1 -999 0.3 100.0 -999.0000 30.4710 -999.0000 12.5
2023-12-03 14:00:00 2023-12-03 06:00:00 -999.0000 6.43 -999.00 0.6000 0.6000 -999.0000 1.1 -999 0.3 100.0 -999.0000 30.4680 -999.0000 12.5
2023-12-03 14:15:00 2023-12-03 06:15:00 -999.0000 6.45 -999.00 0.7000 0.7000 -999.0000 1.1 -999 0.4 100.0 -999.0000 30.4580 -999.0000 12.5
2023-12-03 14:30:00 2023-12-03 06:30:00 -999.0000 6.46 -999.00 0.7000 0.7000 -999.0000 1.3 -999 0.4 100.0 -999.0000 30.4610 -999.0000 12.5
2023-12-03 14:45:00 2023-12-03 06:45:00 -999.0000 6.47 -999.00 0.7000 0.7000 -999.0000 1.1 -999 0.4 100.0 -999.0000 30.4610 -999.0000 12.5
2023-12-03 15:00:00 2023-12-03 07:00:00 -999.0000 6.47 -999.00 0.7000 0.7000 -999.0000 1.3 -999 0.4 100.0 -999.0000 30.4640 -999.0000 12.5
2023-12-03 15:15:00 2023-12-03 07:15:00 -999.0000 6.48 -999.00 0.7000 0.7000 -999.0000 1.3 -999 0.4 100.0 -999.0000 30.4610 -999.0000 12.5
2023-12-03 15:30:00 2023-12-03 07:30:00 -999.0000 6.49 -999.00 0.7000 0.7000 -999.0000 1.3 -999 0.4 100.0 -999.0000 30.4540 -999.0000 12.5
2023-12-03 15:45:00 2023-12-03 07:45:00 -999.0000 6.50 -999.00 0.7000 0.7000 -999.0000 1.1 -999 0.4 100.0 -999.0000 30.4410 -999.0000 12.5
2023-12-03 16:00:00 2023-12-03 08:00:00 -999.0000 6.51 -999.00 0.7000 0.7000 -999.0000 1.3 -999 0.4 100.0 -999.0000 30.4480 -999.0000 12.5
2023-12-03 16:15:00 2023-12-03 08:15:00 -999.0000 6.52 -999.00 0.7000 0.7000 -999.0000 1.3 -999 0.4 100.0 -999.0000 30.4540 -999.0000 12.5
2023-12-03 16:30:00 2023-12-03 08:30:00 -999.0000 6.53 -999.00 0.7000 0.7000 -999.0000 1.3 -999 0.4 100.0 -999.0000 30.4580 -999.0000 12.5
2023-12-03 16:45:00 2023-12-03 08:45:00 -999.0000 6.55 -999.00 0.7000 0.7000 -999.0000 1.3 -999 0.4 100.0 -999.0000 30.4580 -999.0000 12.5
2023-12-03 17:00:00 2023-12-03 09:00:00 -999.0000 6.56 -999.00 0.8000 0.8000 -999.0000 1.3 -999 0.5 100.0 -999.0000 30.4580 -999.0000 12.5
2023-12-03 17:15:00 2023-12-03 09:15:00 -999.0000 6.57 -999.00 0.9000 0.9000 -999.0000 1.3 -999 0.5 100.0 -999.0000 30.4740 -999.0000 12.4
2023-12-03 17:30:00 2023-12-03 09:30:00 -999.0000 6.58 -999.00 0.8000 0.8000 -999.0000 1.3 -999 0.5 100.0 -999.0000 30.4810 -999.0000 12.5
2023-12-03 17:45:00 2023-12-03 09:45:00 -999.0000 6.60 -999.00 0.9000 0.9000 -999.0000 1.3 -999 0.6 100.0 -999.0000 30.4540 -999.0000 12.5
2023-12-03 18:00:00 2023-12-03 10:00:00 -999.0000 6.61 -999.00 1.1000 1.1000 -999.0000 1.4 -999 0.8 100.0 -999.0000 30.4740 -999.0000 12.5
2023-12-03 18:15:00 2023-12-03 10:15:00 -999.0000 6.61 -999.00 1.0000 1.0000 -999.0000 1.6 -999 0.8 100.0 -999.0000 30.4780 -999.0000 12.5
2023-12-03 18:30:00 2023-12-03 10:30:00 -999.0000 6.62 -999.00 1.0000 1.0000 -999.0000 1.6 -999 0.8 100.0 -999.0000 30.4810 -999.0000 12.5
2023-12-03 18:45:00 2023-12-03 10:45:00 -999.0000 6.62 -999.00 1.1000 1.1000 -999.0000 1.6 -999 0.8 100.0 -999.0000 30.4840 -999.0000 12.5
2023-12-03 19:00:00 2023-12-03 11:00:00 -999.0000 6.63 -999.00 1.1000 1.1000 -999.0000 1.6 -999 0.8 100.0 -999.0000 30.4910 -999.0000 12.5
2023-12-03 19:15:00 2023-12-03 11:15:00 -999.0000 6.63 -999.00 1.1000 1.1000 -999.0000 1.8 -999 0.9 100.0 -999.0000 30.4980 -999.0000 12.5
2023-12-03 19:30:00 2023-12-03 11:30:00 -999.0000 6.65 -999.00 1.2000 1.2000 -999.0000 1.8 -999 1.0 100.0 -999.0000 30.5050 -999.0000 12.5
2023-12-03 19:45:00 2023-12-03 11:45:00 -999.0000 6.66 -999.00 1.2000 1.2000 -999.0000 1.8 -999 0.9 100.0 -999.0000 30.5050 -999.0000 12.5
2023-12-03 20:00:00 2023-12-03 12:00:00 -999.0000 6.67 -999.00 1.1000 1.1000 -999.0000 1.8 -999 0.9 100.0 -999.0000 30.4980 -999.0000 12.5
2023-12-03 20:15:00 2023-12-03 12:15:00 -999.0000 6.68 -999.00 1.1000 1.1000 -999.0000 1.8 -999 0.9 100.0 -999.0000 30.5150 -999.0000 12.5
2023-12-03 20:30:00 2023-12-03 12:30:00 -999.0000 6.69 -999.00 1.3000 1.3000 -999.0000 2.0 -999 1.0 100.0 -999.0000 30.5310 -999.0000 12.5
2023-12-03 20:45:00 2023-12-03 12:45:00 -999.0000 6.71 -999.00 1.5000 1.5000 -999.0000 2.0 -999 1.1 100.0 -999.0000 30.5380 -999.0000 12.5
2023-12-03 21:00:00 2023-12-03 13:00:00 -999.0000 6.72 -999.00 2.4000 2.4000 -999.0000 2.1 -999 2.0 100.0 -999.0000 30.5350 -999.0000 12.5
2023-12-03 21:15:00 2023-12-03 13:15:00 -999.0000 6.73 -999.00 2.3000 2.3000 -999.0000 2.5 -999 2.0 100.0 -999.0000 30.5380 -999.0000 12.6
2023-12-03 21:30:00 2023-12-03 13:30:00 -999.0000 6.74 -999.00 2.9000 2.9000 -999.0000 2.8 -999 2.4 100.0 -999.0000 30.5450 -999.0000 12.6
2023-12-03 21:45:00 2023-12-03 13:45:00 -999.0000 6.75 -999.00 2.9000 2.9000 -999.0000 3.0 -999 2.5 100.0 -999.0000 30.5510 -999.0000 12.7
2023-12-03 22:00:00 2023-12-03 14:00:00 -999.0000 6.77 -999.00 3.0000 3.0000 -999.0000 3.4 -999 2.5 100.0 -999.0000 30.5650 -999.0000 12.7
2023-12-03 22:15:00 2023-12-03 14:15:00 -999.0000 6.79 -999.00 3.7000 3.7000 -999.0000 3.9 -999 4.4 100.0 -999.0000 30.5780 -999.0000 13.2
2023-12-03 22:30:00 2023-12-03 14:30:00 -999.0000 6.79 -999.00 3.3000 3.1577 -999.0000 4.8 -999 3.2 99.0 -999.0000 30.5880 -999.0000 13.1
2023-12-03 22:45:00 2023-12-03 14:45:00 -999.0000 6.80 -999.00 3.3000 3.3000 -999.0000 5.1 -999 2.9 100.0 -999.0000 30.5910 -999.0000 13.0
2023-12-03 23:00:00 2023-12-03 15:00:00 -999.0000 6.81 -999.00 3.2000 3.2000 -999.0000 5.0 -999 2.6 100.0 -999.0000 30.5950 -999.0000 12.9
2023-12-03 23:15:00 2023-12-03 15:15:00 -999.0000 6.82 -999.00 2.8000 2.6583 -999.0000 4.8 -999 2.3 99.0 -999.0000 30.6050 -999.0000 12.8
2023-12-03 23:30:00 2023-12-03 15:30:00 -999.0000 6.82 -999.00 2.4000 2.2587 -999.0000 4.4 -999 1.9 99.0 -999.0000 30.6080 -999.0000 12.8
2023-12-03 23:45:00 2023-12-03 15:45:00 -999.0000 6.83 -999.00 2.1000 1.9591 -999.0000 4.1 -999 1.7 99.0 -999.0000 30.6250 -999.0000 12.7
2023-12-04 00:00:00 2023-12-03 16:00:00 -999.0000 6.83 -999.00 2.0000 2.0000 -999.0000 3.7 -999 1.6 100.0 -999.0000 30.6320 -999.0000 12.7
2023-12-04 00:15:00 2023-12-03 16:15:00 -999.0000 6.83 -999.00 2.1000 2.1000 -999.0000 3.6 -999 1.6 100.0 -999.0000 30.6450 -999.0000 12.6
2023-12-04 00:30:00 2023-12-03 16:30:00 -999.0000 6.83 -999.00 2.1000 2.1000 -999.0000 3.2 -999 1.6 100.0 -999.0000 30.6580 -999.0000 12.6
2023-12-04 00:45:00 2023-12-03 16:45:00 -999.0000 6.84 -999.00 1.9000 1.9000 -999.0000 3.0 -999 1.5 100.0 -999.0000 30.6680 -999.0000 12.6
2023-12-04 01:00:00 2023-12-03 17:00:00 -999.0000 6.84 -999.00 1.9000 1.9000 -999.0000 2.8 -999 1.4 100.0 -999.0000 30.6820 -999.0000 12.6
2023-12-04 01:15:00 2023-12-03 17:15:00 -999.0000 6.84 -999.00 1.8000 1.8000 -999.0000 2.7 -999 1.4 100.0 -999.0000 30.6820 -999.0000 12.5
2023-12-04 01:30:00 2023-12-03 17:30:00 -999.0000 6.84 -999.00 1.7000 1.7000 -999.0000 2.7 -999 1.3 100.0 -999.0000 30.6920 -999.0000 12.5
2023-12-04 01:45:00 2023-12-03 17:45:00 -999.0000 6.85 -999.00 1.6000 1.6000 -999.0000 2.5 -999 1.2 100.0 -999.0000 30.6990 -999.0000 12.5
2023-12-04 02:00:00 2023-12-03 18:00:00 -999.0000 6.85 -999.00 1.6000 1.6000 -999.0000 2.3 -999 1.2 100.0 -999.0000 30.6990 -999.0000 12.5
2023-12-04 02:15:00 2023-12-03 18:15:00 -999.0000 6.85 -999.00 1.6000 1.6000 -999.0000 2.1 -999 1.2 100.0 -999.0000 30.7050 -999.0000 12.5
2023-12-04 02:30:00 2023-12-03 18:30:00 -999.0000 6.85 -999.00 1.4000 1.4000 -999.0000 2.1 -999 1.1 100.0 -999.0000 30.7120 -999.0000 12.5
2023-12-04 02:45:00 2023-12-03 18:45:00 -999.0000 6.85 -999.00 1.4000 1.4000 -999.0000 2.1 -999 1.0 100.0 -999.0000 30.7220 -999.0000 12.5
2023-12-04 03:00:00 2023-12-03 19:00:00 -999.0000 6.85 -999.00 1.4000 1.4000 -999.0000 2.0 -999 1.0 100.0 -999.0000 30.7220 -999.0000 12.5
2023-12-04 03:15:00 2023-12-03 19:15:00 -999.0000 6.85 -999.00 1.3000 1.3000 -999.0000 2.0 -999 0.9 100.0 -999.0000 30.7220 -999.0000 12.5
2023-12-04 03:30:00 2023-12-03 19:30:00 -999.0000 6.85 -999.00 1.4000 1.4000 -999.0000 1.8 -999 0.9 100.0 -999.0000 30.7120 -999.0000 12.5
2023-12-04 03:45:00 2023-12-03 19:45:00 -999.0000 6.85 -999.00 1.3000 1.3000 -999.0000 1.8 -999 0.9 100.0 -999.0000 30.7190 -999.0000 12.5
2023-12-04 04:00:00 2023-12-03 20:00:00 -999.0000 6.85 -999.00 1.3000 1.3000 -999.0000 1.8 -999 0.9 100.0 -999.0000 30.7320 -999.0000 12.5
2023-12-04 04:15:00 2023-12-03 20:15:00 -999.0000 6.86 -999.00 1.3000 1.3000 -999.0000 1.8 -999 0.9 100.0 -999.0000 30.7420 -999.0000 12.5
2023-12-04 04:30:00 2023-12-03 20:30:00 -999.0000 6.86 -999.00 1.3000 1.3000 -999.0000 1.8 -999 0.9 100.0 -999.0000 30.7390 -999.0000 12.5
2023-12-04 04:45:00 2023-12-03 20:45:00 -999.0000 6.86 -999.00 1.2000 1.2000 -999.0000 1.8 -999 0.8 100.0 -999.0000 30.7420 -999.0000 12.5
2023-12-04 05:00:00 2023-12-03 21:00:00 -999.0000 6.86 -999.00 1.1000 1.1000 -999.0000 1.6 -999 0.8 100.0 -999.0000 30.7490 -999.0000 12.5
2023-12-04 05:15:00 2023-12-03 21:15:00 -999.0000 6.86 -999.00 1.3000 1.3000 -999.0000 1.6 -999 0.9 100.0 -999.0000 30.7020 -999.0000 12.5
2023-12-04 05:30:00 2023-12-03 21:30:00 -999.0000 6.86 -999.00 1.2000 1.2000 -999.0000 1.6 -999 0.8 100.0 -999.0000 30.6850 -999.0000 12.5
2023-12-04 05:45:00 2023-12-03 21:45:00 -999.0000 6.86 -999.00 1.2000 1.2000 -999.0000 1.6 -999 0.8 100.0 -999.0000 30.7050 -999.0000 12.5
2023-12-04 06:00:00 2023-12-03 22:00:00 -999.0000 6.86 -999.00 1.2000 1.2000 -999.0000 1.6 -999 0.8 100.0 -999.0000 30.7020 -999.0000 12.5
2023-12-04 06:15:00 2023-12-03 22:15:00 -999.0000 6.86 -999.00 1.2000 1.2000 -999.0000 1.6 -999 0.8 100.0 -999.0000 30.7220 -999.0000 12.5
2023-12-04 06:30:00 2023-12-03 22:30:00 -999.0000 6.86 -999.00 1.1000 1.1000 -999.0000 1.6 -999 0.7 100.0 -999.0000 30.7190 -999.0000 12.5
2023-12-04 06:45:00 2023-12-03 22:45:00 -999.0000 6.86 -999.00 1.0000 1.0000 -999.0000 1.6 -999 0.6 100.0 -999.0000 30.7190 -999.0000 12.5
2023-12-04 07:00:00 2023-12-03 23:00:00 -999.0000 6.87 -999.00 1.0000 1.0000 -999.0000 1.4 -999 0.5 100.0 -999.0000 30.7220 -999.0000 12.5
2023-12-04 07:15:00 2023-12-03 23:15:00 -999.0000 6.87 -999.00 0.9000 0.9000 -999.0000 1.4 -999 0.4 100.0 -999.0000 30.7290 -999.0000 12.5
2023-12-04 07:30:00 2023-12-03 23:30:00 -999.0000 6.87 -999.00 0.8000 0.8000 -999.0000 1.3 -999 0.3 100.0 -999.0000 30.7250 -999.0000 12.5
2023-12-04 07:45:00 2023-12-03 23:45:00 -999.0000 6.87 -999.00 0.6000 0.6000 -999.0000 1.3 -999 0.2 100.0 -999.0000 30.7250 -999.0000 12.5
2023-12-04 08:00:00 2023-12-04 00:00:00 -999.0000 6.87 -999.00 0.6000 0.6000 -999.0000 1.1 -999 0.2 100.0 -999.0000 30.7250 -999.0000 12.5
2023-12-04 08:15:00 2023-12-04 00:15:00 -999.0000 6.87 -999.00 0.4000 0.4000 -999.0000 1.1 -999 0.0 100.0 -999.0000 30.7250 -999.0000 12.5
2023-12-04 08:30:00 2023-12-04 00:30:00 -999.0000 6.87 -999.00 0.5000 0.5000 -999.0000 0.9 -999 0.1 100.0 -999.0000 30.7290 -999.0000 12.5
2023-12-04 08:45:00 2023-12-04 00:45:00 -999.0000 6.87 -999.00 0.5000 0.5000 -999.0000 0.9 -999 0.1 100.0 -999.0000 30.7320 -999.0000 12.5
2023-12-04 09:00:00 2023-12-04 01:00:00 -999.0000 6.87 -999.00 0.6000 0.6000 -999.0000 0.9 -999 0.2 100.0 -999.0000 30.7290 -999.0000 12.5
2023-12-04 09:15:00 2023-12-04 01:15:00 -999.0000 6.87 -999.00 0.8000 0.8000 -999.0000 0.9 -999 0.4 100.0 -999.0000 30.7320 -999.0000 12.5
2023-12-04 09:30:00 2023-12-04 01:30:00 -999.0000 6.87 -999.00 1.0000 1.0000 -999.0000 1.1 -999 0.6 100.0 -999.0000 30.7320 -999.0000 12.5
2023-12-04 09:45:00 2023-12-04 01:45:00 -999.0000 6.87 -999.00 1.2000 1.2000 -999.0000 1.1 -999 0.8 100.0 -999.0000 30.7490 -999.0000 12.5
2023-12-04 10:00:00 2023-12-04 02:00:00 -999.0000 6.87 -999.00 1.3000 1.3000 -999.0000 1.3 -999 0.9 100.0 -999.0000 30.7520 -999.0000 12.5
2023-12-04 10:15:00 2023-12-04 02:15:00 -999.0000 6.87 -999.00 1.5000 1.5000 -999.0000 1.4 -999 1.1 100.0 -999.0000 30.7520 -999.0000 12.5
2023-12-04 10:30:00 2023-12-04 02:30:00 -999.0000 6.87 -999.00 1.5000 1.5000 -999.0000 1.4 -999 1.1 100.0 -999.0000 30.7590 -999.0000 12.5
2023-12-04 10:45:00 2023-12-04 02:45:00 -999.0000 6.87 -999.00 1.7000 1.7000 -999.0000 1.6 -999 1.1 100.0 -999.0000 30.7520 -999.0000 12.5
2023-12-04 11:00:00 2023-12-04 03:00:00 -999.0000 6.87 -999.00 1.7000 1.7000 -999.0000 1.6 -999 1.2 100.0 -999.0000 30.7590 -999.0000 12.5
2023-12-04 11:15:00 2023-12-04 03:15:00 -999.0000 6.87 -999.00 1.9000 1.9000 -999.0000 1.8 -999 1.3 100.0 -999.0000 30.7590 -999.0000 12.5
2023-12-04 11:30:00 2023-12-04 03:30:00 -999.0000 6.87 -999.00 2.0000 2.0000 -999.0000 1.8 -999 1.5 100.0 -999.0000 30.7590 -999.0000 12.5
2023-12-04 11:45:00 2023-12-04 03:45:00 -999.0000 6.88 -999.00 2.1000 2.1000 -999.0000 2.0 -999 1.7 100.0 -999.0000 30.7520 -999.0000 12.5
2023-12-04 12:00:00 2023-12-04 04:00:00 -999.0000 6.88 -999.00 2.0000 2.0000 -999.0000 2.1 -999 1.5 100.0 -999.0000 30.7620 -999.0000 12.5
2023-12-04 12:15:00 2023-12-04 04:15:00 -999.0000 6.88 -999.00 1.9000 1.9000 -999.0000 2.3 -999 1.5 100.0 -999.0000 30.7550 -999.0000 12.5
2023-12-04 12:30:00 2023-12-04 04:30:00 -999.0000 6.88 -999.00 2.1000 2.1000 -999.0000 2.1 -999 1.6 100.0 -999.0000 30.7520 -999.0000 12.5
2023-12-04 12:45:00 2023-12-04 04:45:00 -999.0000 6.88 -999.00 2.0000 2.0000 -999.0000 2.5 -999 1.6 100.0 -999.0000 30.7490 -999.0000 12.5
2023-12-04 13:00:00 2023-12-04 05:00:00 -999.0000 6.89 -999.00 2.2000 2.2000 -999.0000 2.3 -999 1.7 100.0 -999.0000 30.7520 -999.0000 12.5
2023-12-04 13:15:00 2023-12-04 05:15:00 -999.0000 6.89 -999.00 2.1000 2.1000 -999.0000 2.5 -999 1.7 100.0 -999.0000 30.7450 -999.0000 12.5
2023-12-04 13:30:00 2023-12-04 05:30:00 -999.0000 6.89 -999.00 2.1000 2.1000 -999.0000 2.3 -999 1.7 100.0 -999.0000 30.7390 -999.0000 12.5
2023-12-04 13:45:00 2023-12-04 05:45:00 -999.0000 6.89 -999.00 2.2000 2.2000 -999.0000 2.5 -999 1.7 100.0 -999.0000 30.7190 -999.0000 12.5
2023-12-04 14:00:00 2023-12-04 06:00:00 -999.0000 6.89 -999.00 2.1000 2.1000 -999.0000 2.5 -999 1.6 100.0 -999.0000 30.7190 -999.0000 12.5
2023-12-04 14:15:00 2023-12-04 06:15:00 -999.0000 6.89 -999.00 2.3000 2.3000 -999.0000 2.5 -999 1.7 100.0 -999.0000 30.7050 -999.0000 12.5
2023-12-04 14:30:00 2023-12-04 06:30:00 -999.0000 6.89 -999.00 2.1000 2.1000 -999.0000 2.5 -999 1.7 100.0 -999.0000 30.7020 -999.0000 12.5
2023-12-04 14:45:00 2023-12-04 06:45:00 -999.0000 6.89 -999.00 2.1000 2.1000 -999.0000 2.5 -999 1.7 100.0 -999.0000 30.7190 -999.0000 12.5
2023-12-04 15:00:00 2023-12-04 07:00:00 -999.0000 6.90 -999.00 2.5000 2.5000 -999.0000 2.5 -999 1.9 100.0 -999.0000 30.7220 -999.0000 12.5
2023-12-04 15:15:00 2023-12-04 07:15:00 -999.0000 6.91 -999.00 2.6000 2.6000 -999.0000 2.7 -999 2.2 100.0 -999.0000 30.7150 -999.0000 12.5
2023-12-04 15:30:00 2023-12-04 07:30:00 -999.0000 6.92 -999.00 2.8000 2.8000 -999.0000 2.8 -999 2.3 100.0 -999.0000 30.7190 -999.0000 12.5
2023-12-04 15:45:00 2023-12-04 07:45:00 -999.0000 6.93 -999.00 2.8000 2.8000 -999.0000 2.8 -999 2.3 100.0 -999.0000 30.7150 -999.0000 12.5
2023-12-04 16:00:00 2023-12-04 08:00:00 -999.0000 6.93 -999.00 2.9000 2.9000 -999.0000 2.8 -999 2.3 100.0 -999.0000 30.7220 -999.0000 12.5
2023-12-04 16:15:00 2023-12-04 08:15:00 -999.0000 6.94 -999.00 2.9000 2.9000 -999.0000 3.0 -999 2.5 100.0 -999.0000 30.7220 -999.0000 12.5
2023-12-04 16:30:00 2023-12-04 08:30:00 -999.0000 6.95 -999.00 3.2000 3.2000 -999.0000 3.2 -999 2.6 100.0 -999.0000 30.7150 -999.0000 12.5
2023-12-04 16:45:00 2023-12-04 08:45:00 -999.0000 6.95 -999.00 2.8000 2.8000 -999.0000 3.2 -999 2.4 100.0 -999.0000 30.7220 -999.0000 12.5
2023-12-04 17:00:00 2023-12-04 09:00:00 -999.0000 6.96 -999.00 3.2000 3.2000 -999.0000 3.4 -999 2.7 100.0 -999.0000 30.7190 -999.0000 12.5
2023-12-04 17:15:00 2023-12-04 09:15:00 -999.0000 6.97 -999.00 3.3000 3.3000 -999.0000 3.4 -999 2.8 100.0 -999.0000 30.7290 -999.0000 12.5
2023-12-04 17:30:00 2023-12-04 09:30:00 -999.0000 6.98 -999.00 3.4000 3.4000 -999.0000 3.6 -999 3.0 100.0 -999.0000 30.7290 -999.0000 12.5
2023-12-04 17:45:00 2023-12-04 09:45:00 -999.0000 6.98 -999.00 3.5000 3.5000 -999.0000 3.6 -999 3.1 100.0 -999.0000 30.7250 -999.0000 12.5
2023-12-04 18:00:00 2023-12-04 10:00:00 -999.0000 6.99 -999.00 3.5000 3.5000 -999.0000 3.7 -999 3.1 100.0 -999.0000 30.7250 -999.0000 12.5
2023-12-04 18:15:00 2023-12-04 10:15:00 -999.0000 6.99 -999.00 3.3000 3.3000 -999.0000 3.7 -999 2.9 100.0 -999.0000 30.7290 -999.0000 12.5
2023-12-04 18:30:00 2023-12-04 10:30:00 -999.0000 7.00 -999.00 3.6000 3.6000 -999.0000 3.9 -999 3.1 100.0 -999.0000 30.7290 -999.0000 12.5
2023-12-04 18:45:00 2023-12-04 10:45:00 -999.0000 7.00 -999.00 3.6000 3.6000 -999.0000 3.9 -999 3.1 100.0 -999.0000 30.7190 -999.0000 12.5
2023-12-04 19:00:00 2023-12-04 11:00:00 -999.0000 7.01 -999.00 3.6000 3.6000 -999.0000 3.9 -999 3.1 100.0 -999.0000 30.7190 -999.0000 12.5
2023-12-04 19:15:00 2023-12-04 11:15:00 -999.0000 7.01 -999.00 3.7000 3.7000 -999.0000 4.1 -999 3.3 100.0 -999.0000 30.7220 -999.0000 12.5
2023-12-04 19:30:00 2023-12-04 11:30:00 -999.0000 7.02 -999.00 3.8000 3.8000 -999.0000 4.1 -999 3.3 100.0 -999.0000 30.7190 -999.0000 12.5
2023-12-04 19:45:00 2023-12-04 11:45:00 -999.0000 7.03 -999.00 3.8000 3.8000 -999.0000 4.3 -999 3.4 100.0 -999.0000 30.7190 -999.0000 12.5
2023-12-04 20:00:00 2023-12-04 12:00:00 -999.0000 7.03 -999.00 3.7000 3.7000 -999.0000 4.1 -999 3.3 100.0 -999.0000 30.7120 -999.0000 12.5
2023-12-04 20:15:00 2023-12-04 12:15:00 -999.0000 7.03 -999.00 3.7000 3.7000 -999.0000 4.3 -999 3.2 100.0 -999.0000 30.7050 -999.0000 12.5
2023-12-04 20:30:00 2023-12-04 12:30:00 -999.0000 7.04 -999.00 3.5000 3.5000 -999.0000 4.3 -999 3.0 100.0 -999.0000 30.7090 -999.0000 12.5
2023-12-04 20:45:00 2023-12-04 12:45:00 -999.0000 7.04 -999.00 3.5000 3.5000 -999.0000 4.3 -999 3.2 100.0 -999.0000 30.7120 -999.0000 12.5
2023-12-04 21:00:00 2023-12-04 13:00:00 -999.0000 7.05 -999.00 3.6000 3.6000 -999.0000 4.1 -999 3.2 100.0 -999.0000 30.7090 -999.0000 12.5
2023-12-04 21:15:00 2023-12-04 13:15:00 -999.0000 7.06 -999.00 3.7000 3.7000 -999.0000 4.3 -999 3.2 100.0 -999.0000 30.7190 -999.0000 12.5
2023-12-04 21:30:00 2023-12-04 13:30:00 -999.0000 7.07 -999.00 3.8000 3.8000 -999.0000 4.3 -999 3.3 100.0 -999.0000 30.7220 -999.0000 12.5
2023-12-04 21:45:00 2023-12-04 13:45:00 -999.0000 7.08 -999.00 3.7000 3.7000 -999.0000 4.1 -999 3.3 100.0 -999.0000 30.7190 -999.0000 12.5
2023-12-04 22:00:00 2023-12-04 14:00:00 -999.0000 7.08 -999.00 3.8000 3.8000 -999.0000 4.3 -999 3.4 100.0 -999.0000 30.7090 -999.0000 12.5
2023-12-04 22:15:00 2023-12-04 14:15:00 -999.0000 7.08 -999.00 3.6000 3.6000 -999.0000 4.3 -999 3.1 100.0 -999.0000 30.7020 -999.0000 12.5
2023-12-04 22:30:00 2023-12-04 14:30:00 -999.0000 7.08 -999.00 3.4000 3.4000 -999.0000 4.1 -999 3.0 100.0 -999.0000 30.7050 -999.0000 12.5
2023-12-04 22:45:00 2023-12-04 14:45:00 -999.0000 7.08 -999.00 3.6000 3.6000 -999.0000 4.1 -999 3.1 100.0 -999.0000 30.7050 -999.0000 12.5
2023-12-04 23:00:00 2023-12-04 15:00:00 -999.0000 7.09 -999.00 4.0000 4.0000 -999.0000 4.1 -999 3.4 100.0 -999.0000 30.7050 -999.0000 12.5
2023-12-04 23:15:00 2023-12-04 15:15:00 -999.0000 7.09 -999.00 3.9000 3.9000 -999.0000 4.1 -999 3.4 100.0 -999.0000 30.7090 -999.0000 12.5
2023-12-04 23:30:00 2023-12-04 15:30:00 -999.0000 7.09 -999.00 4.0000 4.0000 -999.0000 4.4 -999 3.6 100.0 -999.0000 30.7050 -999.0000 12.5
2023-12-04 23:45:00 2023-12-04 15:45:00 -999.0000 7.09 -999.00 3.8000 3.8000 -999.0000 4.3 -999 3.4 100.0 -999.0000 30.7090 -999.0000 12.5
2023-12-05 00:00:00 2023-12-04 16:00:00 -999.0000 7.10 -999.00 3.9000 3.9000 -999.0000 4.3 -999 3.3 100.0 -999.0000 30.7150 -999.0000 12.5
2023-12-05 00:15:00 2023-12-04 16:15:00 -999.0000 7.10 -999.00 3.6000 3.6000 -999.0000 4.4 -999 3.3 100.0 -999.0000 30.7190 -999.0000 12.5
2023-12-05 00:30:00 2023-12-04 16:30:00 -999.0000 7.10 -999.00 3.7000 3.7000 -999.0000 4.3 -999 3.3 100.0 -999.0000 30.7120 -999.0000 12.5
2023-12-05 00:45:00 2023-12-04 16:45:00 -999.0000 7.10 -999.00 3.6000 3.6000 -999.0000 4.3 -999 3.2 100.0 -999.0000 30.7090 -999.0000 12.5
2023-12-05 01:00:00 2023-12-04 17:00:00 -999.0000 7.10 -999.00 3.8000 3.8000 -999.0000 4.1 -999 3.3 100.0 -999.0000 30.7090 -999.0000 12.5
2023-12-05 01:15:00 2023-12-04 17:15:00 -999.0000 7.11 -999.00 3.9000 3.9000 -999.0000 4.3 -999 3.4 100.0 -999.0000 30.7020 -999.0000 12.5
2023-12-05 01:30:00 2023-12-04 17:30:00 -999.0000 7.11 -999.00 4.0000 4.0000 -999.0000 4.3 -999 3.5 100.0 -999.0000 30.7020 -999.0000 12.5
2023-12-05 01:45:00 2023-12-04 17:45:00 -999.0000 7.11 -999.00 3.7000 3.7000 -999.0000 4.3 -999 3.3 100.0 -999.0000 30.6950 -999.0000 12.5
2023-12-05 02:00:00 2023-12-04 18:00:00 -999.0000 7.11 -999.00 3.8000 3.8000 -999.0000 4.3 -999 3.4 100.0 -999.0000 30.6990 -999.0000 12.5
2023-12-05 02:15:00 2023-12-04 18:15:00 -999.0000 7.11 -999.00 3.7000 3.7000 -999.0000 4.3 -999 3.3 100.0 -999.0000 30.6890 -999.0000 12.5
2023-12-05 02:30:00 2023-12-04 18:30:00 -999.0000 7.11 -999.00 3.9000 3.9000 -999.0000 4.3 -999 3.3 100.0 -999.0000 30.6890 -999.0000 12.5
2023-12-05 02:45:00 2023-12-04 18:45:00 -999.0000 7.11 -999.00 4.0000 4.0000 -999.0000 4.3 -999 3.4 100.0 -999.0000 30.6820 -999.0000 12.5
2023-12-05 03:00:00 2023-12-04 19:00:00 -999.0000 7.11 -999.00 3.9000 3.9000 -999.0000 4.3 -999 3.4 100.0 -999.0000 30.6890 -999.0000 12.5
2023-12-05 03:15:00 2023-12-04 19:15:00 -999.0000 7.12 -999.00 4.0000 4.0000 -999.0000 4.4 -999 3.5 100.0 -999.0000 30.6890 -999.0000 12.5
2023-12-05 03:30:00 2023-12-04 19:30:00 -999.0000 7.12 -999.00 3.7000 3.7000 -999.0000 4.3 -999 3.2 100.0 -999.0000 30.6920 -999.0000 12.5
2023-12-05 03:45:00 2023-12-04 19:45:00 -999.0000 7.12 -999.00 4.0000 4.0000 -999.0000 4.3 -999 3.4 100.0 -999.0000 30.6890 -999.0000 12.5
2023-12-05 04:00:00 2023-12-04 20:00:00 -999.0000 7.12 -999.00 4.0000 4.0000 -999.0000 4.3 -999 3.6 100.0 -999.0000 30.6950 -999.0000 12.5
2023-12-05 04:15:00 2023-12-04 20:15:00 -999.0000 7.12 -999.00 3.9000 3.9000 -999.0000 4.4 -999 3.5 100.0 -999.0000 30.6950 -999.0000 12.5
2023-12-05 04:30:00 2023-12-04 20:30:00 -999.0000 7.13 -999.00 3.9000 3.9000 -999.0000 4.4 -999 3.5 100.0 -999.0000 30.6950 -999.0000 12.5
2023-12-05 04:45:00 2023-12-04 20:45:00 -999.0000 7.13 -999.00 4.0000 4.0000 -999.0000 4.4 -999 3.6 100.0 -999.0000 30.6850 -999.0000 12.5
2023-12-05 05:00:00 2023-12-04 21:00:00 -999.0000 7.14 -999.00 4.1000 4.1000 -999.0000 4.4 -999 3.6 100.0 -999.0000 30.6750 -999.0000 12.5
2023-12-05 05:15:00 2023-12-04 21:15:00 -999.0000 7.15 -999.00 4.1000 4.1000 -999.0000 4.4 -999 3.7 100.0 -999.0000 30.6820 -999.0000 12.5
2023-12-05 05:30:00 2023-12-04 21:30:00 -999.0000 7.16 -999.00 4.5000 4.5000 -999.0000 4.4 -999 3.9 100.0 -999.0000 30.6750 -999.0000 12.5
2023-12-05 05:45:00 2023-12-04 21:45:00 -999.0000 7.17 -999.00 4.5000 4.5000 -999.0000 4.6 -999 4.0 100.0 -999.0000 30.6720 -999.0000 12.5
2023-12-05 06:00:00 2023-12-04 22:00:00 -999.0000 7.18 -999.00 4.5000 4.5000 -999.0000 4.6 -999 4.1 100.0 -999.0000 30.6820 -999.0000 12.5
2023-12-05 06:15:00 2023-12-04 22:15:00 -999.0000 7.20 -999.00 4.6000 4.6000 -999.0000 4.8 -999 4.3 100.0 -999.0000 30.6820 -999.0000 12.5
2023-12-05 06:30:00 2023-12-04 22:30:00 -999.0000 7.23 -999.00 4.7000 4.7000 -999.0000 5.0 -999 4.4 100.0 -999.0000 30.6850 -999.0000 12.5
2023-12-05 06:45:00 2023-12-04 22:45:00 -999.0000 7.25 -999.00 5.0000 5.0000 -999.0000 5.0 -999 4.6 100.0 -999.0000 30.6850 -999.0000 12.5
2023-12-05 07:00:00 2023-12-04 23:00:00 -999.0000 7.27 -999.00 4.8000 4.8000 -999.0000 5.0 -999 4.6 100.0 -999.0000 30.6850 -999.0000 12.5
2023-12-05 07:15:00 2023-12-04 23:15:00 -999.0000 7.29 -999.00 4.9000 4.9000 -999.0000 5.1 -999 4.6 100.0 -999.0000 30.6920 -999.0000 12.5
2023-12-05 07:30:00 2023-12-04 23:30:00 -999.0000 7.31 -999.00 5.2000 5.2000 -999.0000 5.1 -999 4.7 100.0 -999.0000 30.6920 -999.0000 12.5
2023-12-05 07:45:00 2023-12-04 23:45:00 -999.0000 7.34 -999.00 5.1000 5.1000 -999.0000 5.5 -999 4.8 100.0 -999.0000 30.6950 -999.0000 12.5
2023-12-05 08:00:00 2023-12-05 00:00:00 -999.0000 7.38 -999.00 5.3000 5.3000 -999.0000 5.5 -999 5.1 100.0 -999.0000 30.7020 -999.0000 12.5
2023-12-05 08:15:00 2023-12-05 00:15:00 -999.0000 7.40 -999.00 5.5000 5.5000 -999.0000 5.5 -999 5.1 100.0 -999.0000 30.6850 -999.0000 12.5
2023-12-05 08:30:00 2023-12-05 00:30:00 -999.0000 7.42 -999.00 5.4000 5.4000 -999.0000 5.7 -999 5.0 100.0 -999.0000 30.6920 -999.0000 12.5
2023-12-05 08:45:00 2023-12-05 00:45:00 -999.0000 7.44 -999.00 5.2000 5.2000 -999.0000 5.7 -999 4.8 100.0 -999.0000 30.6890 -999.0000 12.5
2023-12-05 09:00:00 2023-12-05 01:00:00 -999.0000 7.46 -999.00 5.3000 5.3000 -999.0000 5.5 -999 4.8 100.0 -999.0000 30.6850 -999.0000 12.5
2023-12-05 09:15:00 2023-12-05 01:15:00 -999.0000 7.47 -999.00 4.8000 4.8000 -999.0000 5.5 -999 4.5 100.0 -999.0000 30.6890 -999.0000 12.5
2023-12-05 09:30:00 2023-12-05 01:30:00 -999.0000 7.49 -999.00 5.1000 5.1000 -999.0000 5.5 -999 4.7 100.0 -999.0000 30.6890 -999.0000 12.5
2023-12-05 09:45:00 2023-12-05 01:45:00 -999.0000 7.51 -999.00 4.8000 4.8000 -999.0000 5.5 -999 4.5 100.0 -999.0000 30.6890 -999.0000 12.5
2023-12-05 10:00:00 2023-12-05 02:00:00 -999.0000 7.53 -999.00 5.1000 5.1000 -999.0000 5.5 -999 4.6 100.0 -999.0000 30.6920 -999.0000 12.5
2023-12-05 10:15:00 2023-12-05 02:15:00 -999.0000 7.55 -999.00 5.1000 5.1000 -999.0000 5.5 -999 4.7 100.0 -999.0000 30.6990 -999.0000 12.5
2023-12-05 10:30:00 2023-12-05 02:30:00 -999.0000 7.57 -999.00 4.9000 4.9000 -999.0000 5.5 -999 4.5 100.0 -999.0000 30.6920 -999.0000 12.5
2023-12-05 10:45:00 2023-12-05 02:45:00 -999.0000 7.58 -999.00 5.2000 5.2000 -999.0000 5.3 -999 4.7 100.0 -999.0000 30.6890 -999.0000 12.5
2023-12-05 11:00:00 2023-12-05 03:00:00 -999.0000 7.59 -999.00 4.8000 4.8000 -999.0000 5.3 -999 4.5 100.0 -999.0000 30.6850 -999.0000 12.5
2023-12-05 11:15:00 2023-12-05 03:15:00 -999.0000 7.61 -999.00 4.9000 4.9000 -999.0000 5.3 -999 4.5 100.0 -999.0000 30.6780 -999.0000 12.5
2023-12-05 11:30:00 2023-12-05 03:30:00 -999.0000 7.62 -999.00 4.8000 4.8000 -999.0000 5.3 -999 4.4 100.0 -999.0000 30.6720 -999.0000 12.5
2023-12-05 11:45:00 2023-12-05 03:45:00 -999.0000 7.64 -999.00 4.8000 4.8000 -999.0000 5.3 -999 4.4 100.0 -999.0000 30.6750 -999.0000 12.5
2023-12-05 12:00:00 2023-12-05 04:00:00 -999.0000 7.65 -999.00 4.8000 4.8000 -999.0000 5.3 -999 4.4 100.0 -999.0000 30.6720 -999.0000 12.5
2023-12-05 12:15:00 2023-12-05 04:15:00 -999.0000 7.67 -999.00 4.7000 4.7000 -999.0000 5.3 -999 4.4 100.0 -999.0000 30.6680 -999.0000 12.5
2023-12-05 12:30:00 2023-12-05 04:30:00 -999.0000 7.68 -999.00 4.8000 4.8000 -999.0000 5.1 -999 4.4 100.0 -999.0000 30.6650 -999.0000 12.5
2023-12-05 12:45:00 2023-12-05 04:45:00 -999.0000 7.69 -999.00 4.8000 4.8000 -999.0000 5.3 -999 4.5 100.0 -999.0000 30.6580 -999.0000 12.5
2023-12-05 13:00:00 2023-12-05 05:00:00 -999.0000 7.70 -999.00 4.9000 4.9000 -999.0000 5.3 -999 4.5 100.0 -999.0000 30.6580 -999.0000 12.5
2023-12-05 13:15:00 2023-12-05 05:15:00 -999.0000 7.71 -999.00 4.8000 4.8000 -999.0000 5.3 -999 4.6 100.0 -999.0000 30.6680 -999.0000 12.5
2023-12-05 13:30:00 2023-12-05 05:30:00 -999.0000 7.73 -999.00 4.9000 4.9000 -999.0000 5.3 -999 4.6 100.0 -999.0000 30.6780 -999.0000 12.5
2023-12-05 13:45:00 2023-12-05 05:45:00 -999.0000 7.74 -999.00 4.9000 4.9000 -999.0000 5.3 -999 4.6 100.0 -999.0000 30.6820 -999.0000 12.5
2023-12-05 14:00:00 2023-12-05 06:00:00 -999.0000 7.76 -999.00 4.8000 4.8000 -999.0000 5.3 -999 4.6 100.0 -999.0000 30.6850 -999.0000 12.5
2023-12-05 14:15:00 2023-12-05 06:15:00 -999.0000 7.77 -999.00 4.9000 4.9000 -999.0000 5.3 -999 4.6 100.0 -999.0000 30.6820 -999.0000 12.5
2023-12-05 14:30:00 2023-12-05 06:30:00 -999.0000 7.79 -999.00 5.0000 5.0000 -999.0000 5.3 -999 4.7 100.0 -999.0000 30.6780 -999.0000 12.5
2023-12-05 14:45:00 2023-12-05 06:45:00 -999.0000 7.81 -999.00 5.1000 5.1000 -999.0000 5.3 -999 4.7 100.0 -999.0000 30.6680 -999.0000 12.5
2023-12-05 15:00:00 2023-12-05 07:00:00 -999.0000 7.82 -999.00 5.2000 5.2000 -999.0000 5.5 -999 4.8 100.0 -999.0000 30.6720 -999.0000 12.5
2023-12-05 15:15:00 2023-12-05 07:15:00 -999.0000 7.83 -999.00 4.8000 4.8000 -999.0000 5.5 -999 4.5 100.0 -999.0000 30.6820 -999.0000 12.5
2023-12-05 15:30:00 2023-12-05 07:30:00 -999.0000 7.84 -999.00 4.7000 4.7000 -999.0000 5.3 -999 4.5 100.0 -999.0000 30.6780 -999.0000 12.5
2023-12-05 15:45:00 2023-12-05 07:45:00 -999.0000 7.85 -999.00 4.7000 4.7000 -999.0000 5.3 -999 4.4 100.0 -999.0000 30.6820 -999.0000 12.5
2023-12-05 16:00:00 2023-12-05 08:00:00 -999.0000 7.86 -999.00 5.0000 5.0000 -999.0000 5.3 -999 4.7 100.0 -999.0000 30.6720 -999.0000 12.5
2023-12-05 16:15:00 2023-12-05 08:15:00 -999.0000 7.87 -999.00 5.0000 5.0000 -999.0000 5.3 -999 4.6 100.0 -999.0000 30.6750 -999.0000 12.5
2023-12-05 16:30:00 2023-12-05 08:30:00 -999.0000 7.87 -999.00 5.0000 5.0000 -999.0000 5.3 -999 4.7 100.0 -999.0000 30.6750 -999.0000 12.5
2023-12-05 16:45:00 2023-12-05 08:45:00 -999.0000 7.87 -999.00 5.1000 5.1000 -999.0000 5.3 -999 4.7 100.0 -999.0000 30.6820 -999.0000 12.5
2023-12-05 17:00:00 2023-12-05 09:00:00 -999.0000 7.88 -999.00 5.0000 5.0000 -999.0000 5.3 -999 4.5 100.0 -999.0000 30.6920 -999.0000 12.5
2023-12-05 17:15:00 2023-12-05 09:15:00 -999.0000 7.89 -999.00 4.8000 4.8000 -999.0000 5.5 -999 4.5 100.0 -999.0000 30.6950 -999.0000 12.5
2023-12-05 17:30:00 2023-12-05 09:30:00 -999.0000 7.89 -999.00 5.0000 5.0000 -999.0000 5.5 -999 4.6 100.0 -999.0000 30.6990 -999.0000 12.5
2023-12-05 17:45:00 2023-12-05 09:45:00 -999.0000 7.90 -999.00 5.1000 5.1000 -999.0000 5.5 -999 4.7 100.0 -999.0000 30.6890 -999.0000 12.5
2023-12-05 18:00:00 2023-12-05 10:00:00 -999.0000 7.91 -999.00 5.0000 5.0000 -999.0000 5.5 -999 4.6 100.0 -999.0000 30.6950 -999.0000 12.5
2023-12-05 18:15:00 2023-12-05 10:15:00 -999.0000 7.91 -999.00 5.0000 5.0000 -999.0000 5.5 -999 4.6 100.0 -999.0000 30.6920 -999.0000 12.5
2023-12-05 18:30:00 2023-12-05 10:30:00 -999.0000 7.92 -999.00 5.1000 5.1000 -999.0000 5.5 -999 4.6 100.0 -999.0000 30.6950 -999.0000 12.5
2023-12-05 18:45:00 2023-12-05 10:45:00 -999.0000 7.93 -999.00 5.1000 5.1000 -999.0000 5.5 -999 4.7 100.0 -999.0000 30.6920 -999.0000 12.5
2023-12-05 19:00:00 2023-12-05 11:00:00 -999.0000 7.93 -999.00 5.2000 5.2000 -999.0000 5.5 -999 4.8 100.0 -999.0000 30.6820 -999.0000 12.5
2023-12-05 19:15:00 2023-12-05 11:15:00 -999.0000 7.94 -999.00 5.3000 5.3000 -999.0000 5.7 -999 4.9 100.0 -999.0000 30.6820 -999.0000 12.5
2023-12-05 19:30:00 2023-12-05 11:30:00 -999.0000 7.94 -999.00 5.2000 5.2000 -999.0000 5.8 -999 4.9 100.0 -999.0000 30.6750 -999.0000 12.5
2023-12-05 19:45:00 2023-12-05 11:45:00 -999.0000 7.95 -999.00 5.2000 5.2000 -999.0000 5.8 -999 4.8 100.0 -999.0000 30.6820 -999.0000 12.5
2023-12-05 20:00:00 2023-12-05 12:00:00 -999.0000 7.95 -999.00 5.3000 5.3000 -999.0000 5.7 -999 4.9 100.0 -999.0000 30.6820 -999.0000 12.5
2023-12-05 20:15:00 2023-12-05 12:15:00 -999.0000 7.96 -999.00 5.4000 5.4000 -999.0000 5.8 -999 5.0 100.0 -999.0000 30.6680 -999.0000 12.5
2023-12-05 20:30:00 2023-12-05 12:30:00 -999.0000 7.97 -999.00 5.3000 5.3000 -999.0000 5.8 -999 5.0 100.0 -999.0000 30.6680 -999.0000 12.5
2023-12-05 20:45:00 2023-12-05 12:45:00 -999.0000 7.98 -999.00 5.2000 5.2000 -999.0000 5.8 -999 5.0 100.0 -999.0000 30.6680 -999.0000 12.5
2023-12-05 21:00:00 2023-12-05 13:00:00 -999.0000 7.99 -999.00 5.3000 5.3000 -999.0000 5.8 -999 5.0 100.0 -999.0000 30.6720 -999.0000 12.5
2023-12-05 21:15:00 2023-12-05 13:15:00 -999.0000 8.00 -999.00 5.4000 5.4000 -999.0000 5.8 -999 5.1 100.0 -999.0000 30.6520 -999.0000 12.5
2023-12-05 21:30:00 2023-12-05 13:30:00 -999.0000 8.01 -999.00 5.5000 5.5000 -999.0000 6.0 -999 5.1 100.0 -999.0000 30.6550 -999.0000 12.5
2023-12-05 21:45:00 2023-12-05 13:45:00 -999.0000 8.01 -999.00 5.3000 5.3000 -999.0000 6.0 -999 5.0 100.0 -999.0000 30.6580 -999.0000 12.5
2023-12-05 22:00:00 2023-12-05 14:00:00 -999.0000 8.03 -999.00 5.2000 5.2000 -999.0000 5.8 -999 4.9 100.0 -999.0000 30.6580 -999.0000 12.5
2023-12-05 22:15:00 2023-12-05 14:15:00 -999.0000 8.04 -999.00 5.4000 5.4000 -999.0000 6.0 -999 5.1 100.0 -999.0000 30.6520 -999.0000 12.5
2023-12-05 22:30:00 2023-12-05 14:30:00 -999.0000 8.05 -999.00 5.2000 5.2000 -999.0000 5.8 -999 5.0 100.0 -999.0000 30.6550 -999.0000 12.5
2023-12-05 22:45:00 2023-12-05 14:45:00 -999.0000 8.06 -999.00 5.5000 5.5000 -999.0000 6.0 -999 5.1 100.0 -999.0000 30.6520 -999.0000 12.5
2023-12-05 23:00:00 2023-12-05 15:00:00 -999.0000 8.07 -999.00 5.5000 5.5000 -999.0000 5.8 -999 5.1 100.0 -999.0000 30.6550 -999.0000 12.5
2023-12-05 23:15:00 2023-12-05 15:15:00 -999.0000 8.08 -999.00 5.3000 5.3000 -999.0000 5.8 -999 5.0 100.0 -999.0000 30.6550 -999.0000 12.5
2023-12-05 23:30:00 2023-12-05 15:30:00 -999.0000 8.09 -999.00 5.2000 5.2000 -999.0000 5.8 -999 4.9 100.0 -999.0000 30.6580 -999.0000 12.5
2023-12-05 23:45:00 2023-12-05 15:45:00 -999.0000 8.10 -999.00 5.2000 5.2000 -999.0000 5.8 -999 5.0 100.0 -999.0000 30.6520 -999.0000 12.5
2023-12-06 00:00:00 2023-12-05 16:00:00 -999.0000 8.11 -999.00 5.3000 5.3000 -999.0000 5.8 -999 5.0 100.0 -999.0000 30.6580 -999.0000 12.5
2023-12-06 00:15:00 2023-12-05 16:15:00 -999.0000 8.13 -999.00 5.4000 5.4000 -999.0000 5.8 -999 5.0 100.0 -999.0000 30.6480 -999.0000 12.5
2023-12-06 00:30:00 2023-12-05 16:30:00 -999.0000 8.13 -999.00 5.3000 5.3000 -999.0000 6.0 -999 5.0 100.0 -999.0000 30.6450 -999.0000 12.5
2023-12-06 00:45:00 2023-12-05 16:45:00 -999.0000 8.14 -999.00 5.4000 5.4000 -999.0000 5.8 -999 4.9 100.0 -999.0000 30.6520 -999.0000 12.5
2023-12-06 01:00:00 2023-12-05 17:00:00 -999.0000 8.15 -999.00 5.1000 5.1000 -999.0000 5.8 -999 4.7 100.0 -999.0000 30.6520 -999.0000 12.5
2023-12-06 01:15:00 2023-12-05 17:15:00 -999.0000 8.16 -999.00 4.9000 4.9000 -999.0000 5.7 -999 4.6 100.0 -999.0000 30.6450 -999.0000 12.5
2023-12-06 01:30:00 2023-12-05 17:30:00 -999.0000 8.16 -999.00 4.9000 4.9000 -999.0000 5.7 -999 4.6 100.0 -999.0000 30.6380 -999.0000 12.5
2023-12-06 01:45:00 2023-12-05 17:45:00 -999.0000 8.17 -999.00 5.0000 5.0000 -999.0000 5.7 -999 4.6 100.0 -999.0000 30.6220 -999.0000 12.5
2023-12-06 02:00:00 2023-12-05 18:00:00 -999.0000 8.17 -999.00 5.0000 5.0000 -999.0000 5.7 -999 4.6 100.0 -999.0000 30.6180 -999.0000 12.5
2023-12-06 02:15:00 2023-12-05 18:15:00 -999.0000 8.17 -999.00 4.9000 4.9000 -999.0000 5.5 -999 4.6 100.0 -999.0000 30.6180 -999.0000 12.5
2023-12-06 02:30:00 2023-12-05 18:30:00 -999.0000 8.17 -999.00 4.8000 4.8000 -999.0000 5.5 -999 4.6 100.0 -999.0000 30.6150 -999.0000 12.5
2023-12-06 02:45:00 2023-12-05 18:45:00 -999.0000 8.17 -999.00 4.8000 4.8000 -999.0000 5.3 -999 4.6 100.0 -999.0000 30.6250 -999.0000 12.5
2023-12-06 03:00:00 2023-12-05 19:00:00 -999.0000 8.17 -999.00 5.1000 5.1000 -999.0000 5.5 -999 4.8 100.0 -999.0000 30.6150 -999.0000 12.5
2023-12-06 03:15:00 2023-12-05 19:15:00 -999.0000 8.18 -999.00 5.1000 5.1000 -999.0000 5.5 -999 4.8 100.0 -999.0000 30.6050 -999.0000 12.5
2023-12-06 03:30:00 2023-12-05 19:30:00 -999.0000 8.19 -999.00 5.1000 5.1000 -999.0000 5.5 -999 4.8 100.0 -999.0000 30.6150 -999.0000 12.5
2023-12-06 03:45:00 2023-12-05 19:45:00 -999.0000 8.19 -999.00 5.1000 5.1000 -999.0000 5.7 -999 4.9 100.0 -999.0000 30.6180 -999.0000 12.5
2023-12-06 04:00:00 2023-12-05 20:00:00 -999.0000 8.20 -999.00 5.2000 5.2000 -999.0000 5.5 -999 4.9 100.0 -999.0000 30.6180 -999.0000 12.5
2023-12-06 04:15:00 2023-12-05 20:15:00 -999.0000 8.21 -999.00 5.3000 5.3000 -999.0000 5.7 -999 5.1 100.0 -999.0000 30.6150 -999.0000 12.5
2023-12-06 04:30:00 2023-12-05 20:30:00 -999.0000 8.21 -999.00 5.4000 5.4000 -999.0000 5.7 -999 5.0 100.0 -999.0000 30.6150 -999.0000 12.5
2023-12-06 04:45:00 2023-12-05 20:45:00 -999.0000 8.22 -999.00 5.4000 5.4000 -999.0000 5.7 -999 5.1 100.0 -999.0000 30.6150 -999.0000 12.5
2023-12-06 05:00:00 2023-12-05 21:00:00 -999.0000 8.23 -999.00 5.5000 5.5000 -999.0000 5.7 -999 5.3 100.0 -999.0000 30.6120 -999.0000 12.5
2023-12-06 05:15:00 2023-12-05 21:15:00 -999.0000 8.24 -999.00 5.5000 5.5000 -999.0000 5.8 -999 5.2 100.0 -999.0000 30.5980 -999.0000 12.5
2023-12-06 05:30:00 2023-12-05 21:30:00 -999.0000 8.25 -999.00 5.6000 5.6000 -999.0000 5.8 -999 5.2 100.0 -999.0000 30.6080 -999.0000 12.5
2023-12-06 05:45:00 2023-12-05 21:45:00 -999.0000 8.26 -999.00 5.6000 5.6000 -999.0000 5.8 -999 5.2 100.0 -999.0000 30.6120 -999.0000 12.5
2023-12-06 06:00:00 2023-12-05 22:00:00 -999.0000 8.27 -999.00 5.6000 5.6000 -999.0000 6.0 -999 5.2 100.0 -999.0000 30.6020 -999.0000 12.5
2023-12-06 06:15:00 2023-12-05 22:15:00 -999.0000 8.28 -999.00 5.5000 5.5000 -999.0000 6.0 -999 5.2 100.0 -999.0000 30.6050 -999.0000 12.5
2023-12-06 06:30:00 2023-12-05 22:30:00 -999.0000 8.28 -999.00 5.7000 5.7000 -999.0000 6.0 -999 5.2 100.0 -999.0000 30.6050 -999.0000 12.5
2023-12-06 06:45:00 2023-12-05 22:45:00 -999.0000 8.29 -999.00 5.5000 5.5000 -999.0000 5.8 -999 5.1 100.0 -999.0000 30.6050 -999.0000 12.5
2023-12-06 07:00:00 2023-12-05 23:00:00 -999.0000 8.29 -999.00 5.3000 5.3000 -999.0000 5.8 -999 5.1 100.0 -999.0000 30.6050 -999.0000 12.5
2023-12-06 07:15:00 2023-12-05 23:15:00 -999.0000 8.29 -999.00 5.8000 5.8000 -999.0000 5.8 -999 5.4 100.0 -999.0000 30.6080 -999.0000 12.5
2023-12-06 07:30:00 2023-12-05 23:30:00 -999.0000 8.30 -999.00 5.5000 5.5000 -999.0000 6.0 -999 5.2 100.0 -999.0000 30.6020 -999.0000 12.5
2023-12-06 07:45:00 2023-12-05 23:45:00 -999.0000 8.30 -999.00 5.6000 5.6000 -999.0000 6.0 -999 5.3 100.0 -999.0000 30.5950 -999.0000 12.5